Time,TemperatureF,DewpointF,PressureIn,WindDirection,WindDirectionDegrees,WindSpeedMPH,WindSpeedGustMPH,Humidity,HourlyPrecipIn,Conditions,Clouds,dailyrainin,SoftwareType,DateUTC
2013-01-29 00:00:00,30.9,27.8,29.92,NE,45,0.0,0.0,88,0.00,,,0.00,WUHU21623XXSP,2013-01-29 05:00:00,
2013-01-29 00:03:00,30.9,27.8,29.92,NE,45,0.0,0.0,88,0.00,,,0.00,WUHU21623XXSP,2013-01-29 05:03:00,
2013-01-29 00:05:00,30.9,27.8,29.92,NE,45,0.0,0.0,88,0.00,,,0.00,WUHU21623XXSP,2013-01-29 05:05:00,
2013-01-29 00:07:00,30.9,27.8,29.92,NE,45,0.0,0.0,88,0.00,,,0.00,WUHU21623XXSP,2013-01-29 05:07:00,
2013-01-29 00:09:00,30.9,27.8,29.92,NE,45,0.0,0.0,88,0.00,,,0.00,WUHU21623XXSP,2013-01-29 05:09:00,
2013-01-29 00:11:00,30.9,27.8,29.92,NE,45,0.0,0.0,88,0.00,,,0.00,WUHU21623XXSP,2013-01-29 05:11:00,
2013-01-29 00:13:00,30.9,27.8,29.92,NE,45,0.0,0.0,88,0.00,,,0.00,WUHU21623XXSP,2013-01-29 05:13:00,
2013-01-29 00:15:00,30.9,27.8,29.92,NE,45,0.0,0.0,88,0.00,,,0.00,WUHU21623XXSP,2013-01-29 05:15:00,
2013-01-29 00:18:00,30.7,27.6,29.92,NE,45,0.0,0.0,88,0.00,,,0.00,WUHU21623XXSP,2013-01-29 05:18:00,
2013-01-29 00:20:00,30.7,27.6,29.92,NE,45,0.0,0.0,88,0.00,,,0.00,WUHU21623XXSP,2013-01-29 05:20:00,
2013-01-29 00:22:00,30.7,27.6,29.92,NE,45,0.0,0.0,88,0.00,,,0.00,WUHU21623XXSP,2013-01-29 05:22:00,
2013-01-29 00:24:00,30.7,27.6,29.92,NE,45,0.0,0.0,88,0.00,,,0.00,WUHU21623XXSP,2013-01-29 05:24:00,
2013-01-29 00:26:00,30.6,27.5,29.92,NE,45,0.0,0.0,88,0.00,,,0.00,WUHU21623XXSP,2013-01-29 05:26:00,
2013-01-29 00:28:00,30.6,27.5,29.92,NE,45,0.0,0.0,88,0.00,,,0.00,WUHU21623XXSP,2013-01-29 05:28:00,
2013-01-29 00:30:00,30.4,27.3,29.92,NE,45,0.0,0.0,88,0.00,,,0.00,WUHU21623XXSP,2013-01-29 05:30:00,
2013-01-29 00:32:00,30.4,27.3,29.92,NE,45,0.0,0.0,88,0.00,,,0.00,WUHU21623XXSP,2013-01-29 05:32:00,
2013-01-29 00:35:00,30.2,27.1,29.92,NE,45,0.0,0.0,88,0.00,,,0.00,WUHU21623XXSP,2013-01-29 05:35:00,
2013-01-29 00:37:00,30.2,27.1,29.92,NE,45,0.0,0.0,88,0.00,,,0.00,WUHU21623XXSP,2013-01-29 05:37:00,
2013-01-29 00:39:00,30.0,26.9,29.92,SSW,202,4.5,4.5,88,0.00,,,0.00,WUHU21623XXSP,2013-01-29 05:39:00,
2013-01-29 00:41:00,30.0,26.9,29.92,SSW,202,2.5,4.5,88,0.00,,,0.00,WUHU21623XXSP,2013-01-29 05:41:00,
2013-01-29 00:43:00,30.0,26.9,29.92,SSW,202,6.5,6.5,88,0.00,,,0.00,WUHU21623XXSP,2013-01-29 05:43:00,
2013-01-29 00:45:00,29.8,26.7,29.92,SSW,202,1.6,6.5,88,0.00,,,0.00,WUHU21623XXSP,2013-01-29 05:45:00,
2013-01-29 00:50:00,29.8,26.7,29.92,SSW,202,1.8,6.5,88,0.00,,,0.00,WUHU21623XXSP,2013-01-29 05:50:00,
2013-01-29 00:53:00,29.5,26.4,29.92,SSW,202,1.1,6.5,88,0.00,,,0.00,WUHU21623XXSP,2013-01-29 05:53:00,
2013-01-29 00:54:00,29.3,26.2,29.93,South,180,1.6,1.8,88,0.00,,,0.00,WUHU21623XXSP,2013-01-29 05:54:00,
2013-01-29 00:56:00,29.3,26.2,29.93,South,180,0.0,1.8,88,0.00,,,0.00,WUHU21623XXSP,2013-01-29 05:56:00,
2013-01-29 00:58:00,29.3,26.2,29.93,South,180,0.0,1.8,88,0.00,,,0.00,WUHU21623XXSP,2013-01-29 05:58:00,
2013-01-29 01:00:00,29.1,26.0,29.93,South,180,0.0,1.8,88,0.00,,,0.00,WUHU21623XXSP,2013-01-29 06:00:00,
2013-01-29 01:02:00,29.1,26.0,29.93,South,180,0.0,1.6,88,0.00,,,0.00,WUHU21623XXSP,2013-01-29 06:02:00,
2013-01-29 01:05:00,29.3,26.2,29.92,South,180,0.0,0.0,88,0.00,,,0.00,WUHU21623XXSP,2013-01-29 06:05:00,
2013-01-29 01:07:00,29.3,26.2,29.93,South,180,0.0,0.0,88,0.00,,,0.00,WUHU21623XXSP,2013-01-29 06:07:00,
2013-01-29 01:09:00,29.5,26.4,29.93,South,180,0.0,0.0,88,0.00,,,0.00,WUHU21623XXSP,2013-01-29 06:09:00,
2013-01-29 01:11:00,29.5,26.4,29.94,South,180,0.9,0.9,88,0.00,,,0.00,WUHU21623XXSP,2013-01-29 06:11:00,
2013-01-29 01:13:00,29.7,26.6,29.94,South,180,0.0,0.9,88,0.00,,,0.00,WUHU21623XXSP,2013-01-29 06:13:00,
2013-01-29 01:15:00,29.7,26.6,29.94,South,180,0.0,0.9,88,0.00,,,0.00,WUHU21623XXSP,2013-01-29 06:15:00,
2013-01-29 01:17:00,29.8,26.7,29.94,SW,225,0.0,0.9,88,0.00,,,0.00,WUHU21623XXSP,2013-01-29 06:17:00,
2013-01-29 01:20:00,29.8,26.7,29.94,SW,225,0.0,0.9,88,0.00,,,0.00,WUHU21623XXSP,2013-01-29 06:20:00,
2013-01-29 01:22:00,30.0,26.9,29.95,SW,225,0.0,0.0,88,0.00,,,0.00,WUHU21623XXSP,2013-01-29 06:22:00,
2013-01-29 01:24:00,29.8,26.7,29.95,SW,225,0.0,0.0,88,0.00,,,0.00,WUHU21623XXSP,2013-01-29 06:24:00,
2013-01-29 01:26:00,30.0,26.9,29.95,SW,225,0.0,0.0,88,0.00,,,0.00,WUHU21623XXSP,2013-01-29 06:26:00,
2013-01-29 01:28:00,29.8,26.7,29.95,SW,225,0.0,0.0,88,0.00,,,0.00,WUHU21623XXSP,2013-01-29 06:28:00,
2013-01-29 01:30:00,29.8,26.7,29.95,SW,225,0.0,0.0,88,0.00,,,0.00,WUHU21623XXSP,2013-01-29 06:30:00,
2013-01-29 01:32:00,30.0,26.9,29.95,SW,225,0.0,0.0,88,0.00,,,0.00,WUHU21623XXSP,2013-01-29 06:32:00,
2013-01-29 01:35:00,29.8,26.7,29.95,SW,225,0.0,0.0,88,0.00,,,0.00,WUHU21623XXSP,2013-01-29 06:35:00,
2013-01-29 01:37:00,30.0,26.9,29.95,SW,225,0.0,0.0,88,0.00,,,0.00,WUHU21623XXSP,2013-01-29 06:37:00,
2013-01-29 01:39:00,30.0,26.9,29.95,SW,225,0.0,0.0,88,0.00,,,0.00,WUHU21623XXSP,2013-01-29 06:39:00,
2013-01-29 01:41:00,30.0,26.9,29.96,SW,225,0.0,0.0,88,0.00,,,0.00,WUHU21623XXSP,2013-01-29 06:41:00,
2013-01-29 01:43:00,30.0,26.9,29.96,SW,225,0.0,0.0,88,0.00,,,0.00,WUHU21623XXSP,2013-01-29 06:43:00,
2013-01-29 01:45:00,30.0,26.9,29.96,SW,225,0.0,0.0,88,0.00,,,0.00,WUHU21623XXSP,2013-01-29 06:45:00,
2013-01-29 01:49:00,30.0,26.9,29.96,SW,225,0.0,0.0,88,0.00,,,0.00,WUHU21623XXSP,2013-01-29 06:49:00,
2013-01-29 01:52:00,30.0,26.9,29.96,SW,225,0.0,0.0,88,0.00,,,0.00,WUHU21623XXSP,2013-01-29 06:52:00,
2013-01-29 01:54:00,30.0,26.9,29.96,SW,225,0.0,0.0,88,0.00,,,0.00,WUHU21623XXSP,2013-01-29 06:54:00,
2013-01-29 01:56:00,30.0,26.9,29.96,SW,225,0.0,0.0,88,0.00,,,0.00,WUHU21623XXSP,2013-01-29 06:56:00,
2013-01-29 01:58:00,30.0,26.9,29.96,SW,225,0.0,0.0,88,0.00,,,0.00,WUHU21623XXSP,2013-01-29 06:58:00,
2013-01-29 02:00:00,30.0,26.9,29.96,SW,225,0.0,0.0,88,0.00,,,0.00,WUHU21623XXSP,2013-01-29 07:00:00,
2013-01-29 02:02:00,30.2,27.1,29.96,WSW,247,0.0,0.0,88,0.00,,,0.00,WUHU21623XXSP,2013-01-29 07:02:00,
2013-01-29 02:04:00,30.2,27.1,29.97,WSW,247,0.0,0.0,88,0.00,,,0.00,WUHU21623XXSP,2013-01-29 07:04:00,
2013-01-29 02:07:00,30.2,27.1,29.97,WSW,247,0.0,0.0,88,0.00,,,0.00,WUHU21623XXSP,2013-01-29 07:07:00,
2013-01-29 02:09:00,30.2,27.1,29.96,WSW,247,0.0,0.0,88,0.00,,,0.00,WUHU21623XXSP,2013-01-29 07:09:00,
2013-01-29 02:11:00,30.2,27.1,29.97,WSW,247,0.0,0.0,88,0.00,,,0.00,WUHU21623XXSP,2013-01-29 07:11:00,
2013-01-29 02:13:00,30.4,27.3,29.96,WSW,247,0.0,0.0,88,0.00,,,0.00,WUHU21623XXSP,2013-01-29 07:13:00,
2013-01-29 02:15:00,30.4,27.3,29.97,WSW,247,0.0,0.0,88,0.00,,,0.00,WUHU21623XXSP,2013-01-29 07:15:00,
2013-01-29 02:17:00,30.4,27.3,29.97,WSW,247,0.0,0.0,88,0.00,,,0.00,WUHU21623XXSP,2013-01-29 07:17:00,
2013-01-29 02:19:00,30.4,27.3,29.97,WSW,247,0.0,0.0,88,0.00,,,0.00,WUHU21623XXSP,2013-01-29 07:19:00,
2013-01-29 02:22:00,30.4,27.3,29.97,WSW,247,0.0,0.0,88,0.00,,,0.00,WUHU21623XXSP,2013-01-29 07:22:00,
2013-01-29 02:24:00,30.4,27.3,29.97,WSW,247,0.0,0.0,88,0.00,,,0.00,WUHU21623XXSP,2013-01-29 07:24:00,
2013-01-29 02:26:00,30.4,27.3,29.97,WSW,247,0.0,0.0,88,0.00,,,0.00,WUHU21623XXSP,2013-01-29 07:26:00,
2013-01-29 02:28:00,30.4,27.3,29.97,WSW,247,0.0,0.0,88,0.00,,,0.00,WUHU21623XXSP,2013-01-29 07:28:00,
2013-01-29 02:30:00,30.4,27.3,29.97,WSW,247,0.0,0.0,88,0.00,,,0.00,WUHU21623XXSP,2013-01-29 07:30:00,
2013-01-29 02:32:00,30.4,27.3,29.97,WSW,247,0.0,0.0,88,0.00,,,0.00,WUHU21623XXSP,2013-01-29 07:32:00,
2013-01-29 02:34:00,30.4,27.3,29.97,SW,225,0.0,0.0,88,0.00,,,0.00,WUHU21623XXSP,2013-01-29 07:34:00,
2013-01-29 02:37:00,30.4,27.3,29.97,SW,225,0.0,0.0,88,0.00,,,0.00,WUHU21623XXSP,2013-01-29 07:37:00,
2013-01-29 02:39:00,30.6,27.5,29.97,SW,225,0.0,0.0,88,0.00,,,0.00,WUHU21623XXSP,2013-01-29 07:39:00,
2013-01-29 02:41:00,30.6,27.5,29.97,SW,225,0.0,0.0,88,0.00,,,0.00,WUHU21623XXSP,2013-01-29 07:41:00,
2013-01-29 02:43:00,30.6,27.5,29.98,SW,225,0.0,0.0,88,0.00,,,0.00,WUHU21623XXSP,2013-01-29 07:43:00,
2013-01-29 02:45:00,30.4,27.3,29.98,SW,225,0.0,0.0,88,0.00,,,0.00,WUHU21623XXSP,2013-01-29 07:45:00,
2013-01-29 02:47:00,30.4,27.3,29.98,SW,225,0.0,0.0,88,0.00,,,0.00,WUHU21623XXSP,2013-01-29 07:47:00,
2013-01-29 02:49:00,30.4,27.3,29.98,SW,225,2.2,2.2,88,0.00,,,0.00,WUHU21623XXSP,2013-01-29 07:49:00,
2013-01-29 02:52:00,30.2,27.1,29.98,SW,225,0.7,2.2,88,0.00,,,0.00,WUHU21623XXSP,2013-01-29 07:52:00,
2013-01-29 02:54:00,30.0,26.9,29.98,SW,225,0.0,2.2,88,0.00,,,0.00,WUHU21623XXSP,2013-01-29 07:54:00,
2013-01-29 02:56:00,30.0,26.9,29.98,SW,225,0.0,2.2,88,0.00,,,0.00,WUHU21623XXSP,2013-01-29 07:56:00,
2013-01-29 02:58:00,30.0,26.9,29.98,SW,225,0.0,2.2,88,0.00,,,0.00,WUHU21623XXSP,2013-01-29 07:58:00,
2013-01-29 03:00:00,30.0,26.9,29.98,SW,225,0.0,0.7,88,0.00,,,0.00,WUHU21623XXSP,2013-01-29 08:00:00,
2013-01-29 03:02:00,30.0,26.9,29.98,SW,225,0.0,0.0,88,0.00,,,0.00,WUHU21623XXSP,2013-01-29 08:02:00,
2013-01-29 03:04:00,30.0,26.9,29.98,SW,225,0.0,0.0,88,0.00,,,0.00,WUHU21623XXSP,2013-01-29 08:04:00,
2013-01-29 03:07:00,29.8,26.7,29.98,SW,225,0.0,0.0,88,0.00,,,0.00,WUHU21623XXSP,2013-01-29 08:07:00,
2013-01-29 03:09:00,29.8,26.7,29.99,SW,225,0.0,0.0,88,0.00,,,0.00,WUHU21623XXSP,2013-01-29 08:09:00,
2013-01-29 03:11:00,29.8,26.7,29.99,SW,225,0.0,0.0,88,0.00,,,0.00,WUHU21623XXSP,2013-01-29 08:11:00,
2013-01-29 03:13:00,29.8,26.7,29.99,SW,225,0.0,0.0,88,0.00,,,0.00,WUHU21623XXSP,2013-01-29 08:13:00,
2013-01-29 03:15:00,29.8,26.7,29.99,SW,225,0.0,0.0,88,0.00,,,0.00,WUHU21623XXSP,2013-01-29 08:15:00,
2013-01-29 03:17:00,29.8,26.7,29.99,SW,225,0.0,0.0,88,0.00,,,0.00,WUHU21623XXSP,2013-01-29 08:17:00,
2013-01-29 03:19:00,29.8,26.7,29.99,SW,225,0.0,0.0,88,0.00,,,0.00,WUHU21623XXSP,2013-01-29 08:19:00,
2013-01-29 03:21:00,29.8,26.7,29.98,SW,225,0.0,0.0,88,0.00,,,0.00,WUHU21623XXSP,2013-01-29 08:21:00,
2013-01-29 03:24:00,29.8,26.7,29.98,SW,225,0.0,0.0,88,0.00,,,0.00,WUHU21623XXSP,2013-01-29 08:24:00,
2013-01-29 03:26:00,29.8,26.7,29.98,SW,225,0.0,0.0,88,0.00,,,0.00,WUHU21623XXSP,2013-01-29 08:26:00,
2013-01-29 03:28:00,29.8,26.7,29.98,SW,225,0.0,0.0,88,0.00,,,0.00,WUHU21623XXSP,2013-01-29 08:28:00,
2013-01-29 03:30:00,29.8,26.7,29.99,SW,225,0.0,0.0,88,0.00,,,0.00,WUHU21623XXSP,2013-01-29 08:30:00,
2013-01-29 03:32:00,29.8,26.7,29.99,SW,225,0.0,0.0,88,0.00,,,0.00,WUHU21623XXSP,2013-01-29 08:32:00,
2013-01-29 03:34:00,29.8,26.7,29.99,SW,225,0.0,0.0,88,0.00,,,0.00,WUHU21623XXSP,2013-01-29 08:34:00,
2013-01-29 03:36:00,29.8,26.7,29.99,SW,225,0.0,0.0,88,0.00,,,0.00,WUHU21623XXSP,2013-01-29 08:36:00,
2013-01-29 03:39:00,29.8,26.7,29.98,SW,225,0.0,0.0,88,0.00,,,0.00,WUHU21623XXSP,2013-01-29 08:39:00,
2013-01-29 03:41:00,29.8,26.7,29.98,SW,225,0.0,0.0,88,0.00,,,0.00,WUHU21623XXSP,2013-01-29 08:41:00,
2013-01-29 03:43:00,29.8,26.7,29.99,SW,225,0.0,0.0,88,0.00,,,0.00,WUHU21623XXSP,2013-01-29 08:43:00,
2013-01-29 03:45:00,30.0,26.9,29.99,SW,225,0.0,0.0,88,0.00,,,0.00,WUHU21623XXSP,2013-01-29 08:45:00,
2013-01-29 03:47:00,30.0,26.9,29.99,SW,225,0.0,0.0,88,0.00,,,0.00,WUHU21623XXSP,2013-01-29 08:47:00,
2013-01-29 03:49:00,30.0,26.9,29.99,SW,225,0.0,0.0,88,0.00,,,0.00,WUHU21623XXSP,2013-01-29 08:49:00,
2013-01-29 03:52:00,30.0,26.9,29.99,SW,225,0.0,0.0,88,0.00,,,0.00,WUHU21623XXSP,2013-01-29 08:52:00,
2013-01-29 03:54:00,30.0,26.9,29.99,SW,225,0.0,0.0,88,0.00,,,0.00,WUHU21623XXSP,2013-01-29 08:54:00,
2013-01-29 03:56:00,30.0,26.9,29.99,SW,225,0.0,0.0,88,0.00,,,0.00,WUHU21623XXSP,2013-01-29 08:56:00,
2013-01-29 03:58:00,30.0,26.9,29.99,SW,225,0.0,0.0,88,0.00,,,0.00,WUHU21623XXSP,2013-01-29 08:58:00,
2013-01-29 04:00:00,30.0,26.9,29.99,SW,225,0.0,0.0,88,0.00,,,0.00,WUHU21623XXSP,2013-01-29 09:00:00,
2013-01-29 04:02:00,30.0,26.9,29.99,SW,225,0.0,0.0,88,0.00,,,0.00,WUHU21623XXSP,2013-01-29 09:02:00,
2013-01-29 04:04:00,30.0,26.9,29.99,SW,225,0.0,0.0,88,0.00,,,0.00,WUHU21623XXSP,2013-01-29 09:04:00,
2013-01-29 04:06:00,30.0,26.9,30.00,SW,225,0.0,0.0,88,0.00,,,0.00,WUHU21623XXSP,2013-01-29 09:06:00,
2013-01-29 04:09:00,30.0,26.9,30.00,SW,225,0.0,0.0,88,0.00,,,0.00,WUHU21623XXSP,2013-01-29 09:09:00,
2013-01-29 04:11:00,30.0,26.9,30.00,SW,225,0.9,0.9,88,0.00,,,0.00,WUHU21623XXSP,2013-01-29 09:11:00,
2013-01-29 04:13:00,30.0,26.9,30.00,SW,225,1.3,1.3,88,0.00,,,0.00,WUHU21623XXSP,2013-01-29 09:13:00,
2013-01-29 04:15:00,30.0,26.9,30.00,SW,225,0.0,1.3,88,0.00,,,0.00,WUHU21623XXSP,2013-01-29 09:15:00,
2013-01-29 04:17:00,29.8,26.7,30.00,SW,225,0.9,1.3,88,0.00,,,0.00,WUHU21623XXSP,2013-01-29 09:17:00,
2013-01-29 04:19:00,29.8,26.7,30.00,SW,225,1.6,1.6,88,0.00,,,0.00,WUHU21623XXSP,2013-01-29 09:19:00,
2013-01-29 04:21:00,29.8,26.7,30.00,SSW,202,1.6,1.6,88,0.00,,,0.00,WUHU21623XXSP,2013-01-29 09:21:00,
2013-01-29 04:24:00,29.7,26.6,30.00,SSW,202,1.3,1.6,88,0.00,,,0.00,WUHU21623XXSP,2013-01-29 09:24:00,
2013-01-29 04:26:00,29.7,26.6,30.00,SSW,202,0.0,1.6,88,0.00,,,0.00,WUHU21623XXSP,2013-01-29 09:26:00,
2013-01-29 04:28:00,29.7,26.6,30.00,SSW,202,0.0,1.6,88,0.00,,,0.00,WUHU21623XXSP,2013-01-29 09:28:00,
2013-01-29 04:30:00,29.7,26.6,30.00,SSW,202,2.9,2.9,88,0.00,,,0.00,WUHU21623XXSP,2013-01-29 09:30:00,
2013-01-29 04:32:00,29.5,26.4,30.00,SSW,202,0.0,2.9,88,0.00,,,0.00,WUHU21623XXSP,2013-01-29 09:32:00,
2013-01-29 04:34:00,29.7,26.6,30.00,SSW,202,0.0,2.9,88,0.00,,,0.00,WUHU21623XXSP,2013-01-29 09:34:00,
2013-01-29 04:36:00,29.5,26.4,30.00,SSW,202,0.0,2.9,88,0.00,,,0.00,WUHU21623XXSP,2013-01-29 09:36:00,
2013-01-29 04:39:00,29.7,26.6,30.00,SSW,202,0.0,2.9,88,0.00,,,0.00,WUHU21623XXSP,2013-01-29 09:39:00,
2013-01-29 04:41:00,29.5,26.4,30.00,South,180,1.1,1.1,88,0.00,,,0.00,WUHU21623XXSP,2013-01-29 09:41:00,
2013-01-29 04:43:00,29.5,26.4,30.00,South,180,0.0,1.1,88,0.00,,,0.00,WUHU21623XXSP,2013-01-29 09:43:00,
2013-01-29 04:45:00,29.7,26.6,30.00,South,180,0.0,1.1,88,0.00,,,0.00,WUHU21623XXSP,2013-01-29 09:45:00,
2013-01-29 04:47:00,29.5,26.4,30.00,South,180,0.0,1.1,88,0.00,,,0.00,WUHU21623XXSP,2013-01-29 09:47:00,
2013-01-29 04:49:00,29.7,26.6,30.00,South,180,0.0,1.1,88,0.00,,,0.00,WUHU21623XXSP,2013-01-29 09:49:00,
2013-01-29 04:52:00,29.7,26.6,30.00,South,180,0.0,0.0,88,0.00,,,0.00,WUHU21623XXSP,2013-01-29 09:52:00,
2013-01-29 04:54:00,29.5,26.4,30.01,South,180,0.0,0.0,88,0.00,,,0.00,WUHU21623XXSP,2013-01-29 09:54:00,
2013-01-29 04:56:00,29.7,26.6,30.01,South,180,1.3,1.3,88,0.00,,,0.00,WUHU21623XXSP,2013-01-29 09:56:00,
2013-01-29 04:58:00,29.7,26.6,30.01,South,180,2.2,2.2,88,0.00,,,0.00,WUHU21623XXSP,2013-01-29 09:58:00,
2013-01-29 05:00:00,29.5,26.4,30.01,South,180,0.0,2.2,88,0.00,,,0.00,WUHU21623XXSP,2013-01-29 10:00:00,
2013-01-29 05:02:00,29.7,26.6,30.01,South,180,0.0,2.2,88,0.00,,,0.00,WUHU21623XXSP,2013-01-29 10:02:00,
2013-01-29 05:04:00,29.7,26.6,30.01,South,180,0.0,2.2,88,0.00,,,0.00,WUHU21623XXSP,2013-01-29 10:04:00,
2013-01-29 05:06:00,29.7,26.6,30.01,South,180,0.0,2.2,88,0.00,,,0.00,WUHU21623XXSP,2013-01-29 10:06:00,
2013-01-29 05:08:00,29.7,26.6,30.01,South,180,0.0,0.0,88,0.00,,,0.00,WUHU21623XXSP,2013-01-29 10:08:00,
2013-01-29 05:11:00,29.7,26.6,30.01,South,180,0.0,0.0,88,0.00,,,0.00,WUHU21623XXSP,2013-01-29 10:11:00,
2013-01-29 05:13:00,29.8,26.7,30.00,South,180,0.0,0.0,88,0.00,,,0.00,WUHU21623XXSP,2013-01-29 10:13:00,
2013-01-29 05:15:00,29.8,26.7,30.00,South,180,0.0,0.0,88,0.00,,,0.00,WUHU21623XXSP,2013-01-29 10:15:00,
2013-01-29 05:17:00,29.8,26.7,30.00,South,180,0.0,0.0,88,0.00,,,0.00,WUHU21623XXSP,2013-01-29 10:17:00,
2013-01-29 05:19:00,29.8,26.7,30.00,South,180,0.0,0.0,88,0.00,,,0.00,WUHU21623XXSP,2013-01-29 10:19:00,
2013-01-29 05:21:00,29.8,26.7,30.00,South,180,0.0,0.0,88,0.00,,,0.00,WUHU21623XXSP,2013-01-29 10:21:00,
2013-01-29 05:23:00,29.8,26.7,30.00,South,180,0.0,0.0,88,0.00,,,0.00,WUHU21623XXSP,2013-01-29 10:23:00,
2013-01-29 05:26:00,30.0,26.9,30.00,South,180,0.0,0.0,88,0.00,,,0.00,WUHU21623XXSP,2013-01-29 10:26:00,
2013-01-29 05:28:00,30.0,26.9,30.00,South,180,0.0,0.0,88,0.00,,,0.00,WUHU21623XXSP,2013-01-29 10:28:00,
2013-01-29 05:30:00,30.0,26.9,30.01,South,180,0.0,0.0,88,0.00,,,0.00,WUHU21623XXSP,2013-01-29 10:30:00,
2013-01-29 05:32:00,30.0,26.9,30.01,South,180,0.0,0.0,88,0.00,,,0.00,WUHU21623XXSP,2013-01-29 10:32:00,
2013-01-29 05:34:00,30.0,26.9,30.01,South,180,0.0,0.0,88,0.00,,,0.00,WUHU21623XXSP,2013-01-29 10:34:00,
2013-01-29 05:36:00,30.0,26.9,30.02,South,180,0.0,0.0,88,0.00,,,0.00,WUHU21623XXSP,2013-01-29 10:36:00,
2013-01-29 05:38:00,30.0,26.9,30.02,South,180,0.0,0.0,88,0.00,,,0.00,WUHU21623XXSP,2013-01-29 10:38:00,
2013-01-29 05:41:00,30.0,26.9,30.02,South,180,0.0,0.0,88,0.00,,,0.00,WUHU21623XXSP,2013-01-29 10:41:00,
2013-01-29 05:43:00,30.0,26.9,30.02,South,180,0.0,0.0,88,0.00,,,0.00,WUHU21623XXSP,2013-01-29 10:43:00,
2013-01-29 05:45:00,30.0,26.9,30.02,South,180,0.0,0.0,88,0.00,,,0.00,WUHU21623XXSP,2013-01-29 10:45:00,
2013-01-29 05:49:00,30.0,26.9,30.03,South,180,0.0,0.0,88,0.00,,,0.00,WUHU21623XXSP,2013-01-29 10:49:00,
2013-01-29 05:51:00,30.2,27.1,30.03,South,180,0.0,0.0,88,0.00,,,0.00,WUHU21623XXSP,2013-01-29 10:51:00,
2013-01-29 05:53:00,30.2,27.1,30.02,South,180,0.0,0.0,88,0.00,,,0.00,WUHU21623XXSP,2013-01-29 10:53:00,
2013-01-29 05:56:00,30.2,27.1,30.03,South,180,0.0,0.0,88,0.00,,,0.00,WUHU21623XXSP,2013-01-29 10:56:00,
2013-01-29 05:58:00,30.2,27.1,30.03,South,180,0.0,0.0,88,0.00,,,0.00,WUHU21623XXSP,2013-01-29 10:58:00,
2013-01-29 06:00:00,30.2,27.1,30.03,South,180,0.0,0.0,88,0.00,,,0.00,WUHU21623XXSP,2013-01-29 11:00:00,
2013-01-29 06:02:00,30.4,27.3,30.03,South,180,0.0,0.0,88,0.00,,,0.00,WUHU21623XXSP,2013-01-29 11:02:00,
2013-01-29 06:04:00,30.4,27.3,30.03,South,180,0.0,0.0,88,0.00,,,0.00,WUHU21623XXSP,2013-01-29 11:04:00,
2013-01-29 06:06:00,30.4,27.3,30.03,South,180,0.0,0.0,88,0.00,,,0.00,WUHU21623XXSP,2013-01-29 11:06:00,
2013-01-29 06:08:00,30.4,27.3,30.03,South,180,0.0,0.0,88,0.00,,,0.00,WUHU21623XXSP,2013-01-29 11:08:00,
2013-01-29 06:11:00,30.4,27.3,30.03,South,180,0.0,0.0,88,0.00,,,0.00,WUHU21623XXSP,2013-01-29 11:11:00,
2013-01-29 06:13:00,30.4,27.3,30.03,South,180,0.0,0.0,88,0.00,,,0.00,WUHU21623XXSP,2013-01-29 11:13:00,
2013-01-29 06:15:00,30.4,27.3,30.03,South,180,0.0,0.0,88,0.00,,,0.00,WUHU21623XXSP,2013-01-29 11:15:00,
2013-01-29 06:17:00,30.4,27.3,30.02,South,180,0.0,0.0,88,0.00,,,0.00,WUHU21623XXSP,2013-01-29 11:17:00,
2013-01-29 06:19:00,30.6,27.5,30.02,South,180,0.0,0.0,88,0.00,,,0.00,WUHU21623XXSP,2013-01-29 11:19:00,
2013-01-29 06:21:00,30.4,27.3,30.03,South,180,0.0,0.0,88,0.00,,,0.00,WUHU21623XXSP,2013-01-29 11:21:00,
2013-01-29 06:23:00,30.6,27.5,30.03,South,180,0.0,0.0,88,0.00,,,0.00,WUHU21623XXSP,2013-01-29 11:23:00,
2013-01-29 06:26:00,30.6,27.5,30.03,South,180,0.0,0.0,88,0.00,,,0.00,WUHU21623XXSP,2013-01-29 11:26:00,
2013-01-29 06:28:00,30.6,27.5,30.03,South,180,0.0,0.0,88,0.00,,,0.00,WUHU21623XXSP,2013-01-29 11:28:00,
2013-01-29 06:30:00,30.6,27.5,30.03,South,180,0.0,0.0,88,0.00,,,0.00,WUHU21623XXSP,2013-01-29 11:30:00,
2013-01-29 06:32:00,30.6,27.5,30.03,South,180,0.0,0.0,88,0.00,,,0.00,WUHU21623XXSP,2013-01-29 11:32:00,
2013-01-29 06:34:00,30.7,27.6,30.04,South,180,0.0,0.0,88,0.00,,,0.00,WUHU21623XXSP,2013-01-29 11:34:00,
2013-01-29 06:36:00,30.6,27.5,30.04,South,180,0.0,0.0,88,0.00,,,0.00,WUHU21623XXSP,2013-01-29 11:36:00,
2013-01-29 06:38:00,30.7,27.6,30.04,South,180,0.0,0.0,88,0.00,,,0.00,WUHU21623XXSP,2013-01-29 11:38:00,
2013-01-29 06:41:00,30.7,27.6,30.04,South,180,0.0,0.0,88,0.00,,,0.00,WUHU21623XXSP,2013-01-29 11:41:00,
2013-01-29 06:43:00,30.7,27.6,30.04,South,180,0.0,0.0,88,0.00,,,0.00,WUHU21623XXSP,2013-01-29 11:43:00,
2013-01-29 06:45:00,30.7,27.6,30.04,South,180,0.0,0.0,88,0.00,,,0.00,WUHU21623XXSP,2013-01-29 11:45:00,
2013-01-29 06:47:00,30.7,27.6,30.04,South,180,0.0,0.0,88,0.00,,,0.00,WUHU21623XXSP,2013-01-29 11:47:00,
2013-01-29 06:49:00,30.7,27.6,30.04,South,180,0.0,0.0,88,0.00,,,0.00,WUHU21623XXSP,2013-01-29 11:49:00,
2013-01-29 06:51:00,30.7,27.6,30.04,South,180,0.0,0.0,88,0.00,,,0.00,WUHU21623XXSP,2013-01-29 11:51:00,
2013-01-29 06:53:00,30.6,27.5,30.04,South,180,0.0,0.0,88,0.00,,,0.00,WUHU21623XXSP,2013-01-29 11:53:00,
2013-01-29 06:56:00,30.7,27.6,30.04,South,180,0.0,0.0,88,0.00,,,0.00,WUHU21623XXSP,2013-01-29 11:56:00,
2013-01-29 06:58:00,30.7,27.6,30.04,South,180,0.0,0.0,88,0.00,,,0.00,WUHU21623XXSP,2013-01-29 11:58:00,
2013-01-29 07:00:00,30.7,27.6,30.04,South,180,0.0,0.0,88,0.00,,,0.00,WUHU21623XXSP,2013-01-29 12:00:00,
2013-01-29 07:02:00,30.7,27.6,30.04,South,180,0.0,0.0,88,0.00,,,0.00,WUHU21623XXSP,2013-01-29 12:02:00,
2013-01-29 07:04:00,30.7,27.6,30.04,South,180,0.0,0.0,88,0.00,,,0.00,WUHU21623XXSP,2013-01-29 12:04:00,
2013-01-29 07:06:00,30.6,27.5,30.04,South,180,0.0,0.0,88,0.00,,,0.00,WUHU21623XXSP,2013-01-29 12:06:00,
2013-01-29 07:09:00,30.7,27.6,30.04,South,180,0.0,0.0,88,0.00,,,0.00,WUHU21623XXSP,2013-01-29 12:09:00,
2013-01-29 07:11:00,30.7,27.6,30.04,South,180,0.0,0.0,88,0.00,,,0.00,WUHU21623XXSP,2013-01-29 12:11:00,
2013-01-29 07:13:00,30.7,27.6,30.04,South,180,0.0,0.0,88,0.00,,,0.00,WUHU21623XXSP,2013-01-29 12:13:00,
2013-01-29 07:15:00,30.7,27.6,30.04,South,180,0.0,0.0,88,0.00,,,0.00,WUHU21623XXSP,2013-01-29 12:15:00,
2013-01-29 07:17:00,30.9,27.8,30.04,South,180,0.0,0.0,88,0.00,,,0.00,WUHU21623XXSP,2013-01-29 12:17:00,
2013-01-29 07:19:00,30.7,27.6,30.04,South,180,0.0,0.0,88,0.00,,,0.00,WUHU21623XXSP,2013-01-29 12:19:00,
2013-01-29 07:21:00,30.7,27.6,30.04,South,180,0.0,0.0,88,0.00,,,0.00,WUHU21623XXSP,2013-01-29 12:21:00,
2013-01-29 07:23:00,30.7,27.6,30.04,South,180,0.0,0.0,88,0.00,,,0.00,WUHU21623XXSP,2013-01-29 12:23:00,
2013-01-29 07:25:00,30.9,27.8,30.04,South,180,0.0,0.0,88,0.00,,,0.00,WUHU21623XXSP,2013-01-29 12:25:00,
2013-01-29 07:28:00,30.9,27.8,30.04,South,180,0.0,0.0,88,0.00,,,0.00,WUHU21623XXSP,2013-01-29 12:28:00,
2013-01-29 07:30:00,31.1,28.0,30.04,South,180,0.0,0.0,88,0.00,,,0.00,WUHU21623XXSP,2013-01-29 12:30:00,
2013-01-29 07:32:00,31.1,28.0,30.04,South,180,0.0,0.0,88,0.00,,,0.00,WUHU21623XXSP,2013-01-29 12:32:00,
2013-01-29 07:34:00,31.1,28.0,30.04,South,180,0.0,0.0,88,0.00,,,0.00,WUHU21623XXSP,2013-01-29 12:34:00,
2013-01-29 07:36:00,31.1,28.0,30.04,South,180,0.0,0.0,88,0.00,,,0.00,WUHU21623XXSP,2013-01-29 12:36:00,
2013-01-29 07:38:00,31.1,28.0,30.05,South,180,0.0,0.0,88,0.00,,,0.00,WUHU21623XXSP,2013-01-29 12:38:00,
2013-01-29 07:40:00,31.3,28.2,30.05,South,180,0.0,0.0,88,0.00,,,0.00,WUHU21623XXSP,2013-01-29 12:40:00,
2013-01-29 07:43:00,31.3,28.2,30.04,South,180,0.0,0.0,88,0.00,,,0.00,WUHU21623XXSP,2013-01-29 12:43:00,
2013-01-29 07:45:00,31.3,28.2,30.04,South,180,0.0,0.0,88,0.00,,,0.00,WUHU21623XXSP,2013-01-29 12:45:00,
2013-01-29 07:47:00,31.3,28.2,30.04,South,180,0.0,0.0,88,0.00,,,0.00,WUHU21623XXSP,2013-01-29 12:47:00,
2013-01-29 07:49:00,31.3,28.2,30.04,South,180,0.0,0.0,88,0.00,,,0.00,WUHU21623XXSP,2013-01-29 12:49:00,
2013-01-29 07:51:00,31.3,28.2,30.04,South,180,0.0,0.0,88,0.00,,,0.00,WUHU21623XXSP,2013-01-29 12:51:00,
2013-01-29 07:53:00,31.3,28.2,30.04,South,180,0.0,0.0,88,0.00,,,0.00,WUHU21623XXSP,2013-01-29 12:53:00,
2013-01-29 07:55:00,31.3,28.2,30.05,South,180,0.0,0.0,88,0.00,,,0.00,WUHU21623XXSP,2013-01-29 12:55:00,
2013-01-29 07:58:00,31.3,28.2,30.05,South,180,0.0,0.0,88,0.00,,,0.00,WUHU21623XXSP,2013-01-29 12:58:00,
2013-01-29 08:00:00,31.6,28.5,30.04,South,180,0.0,0.0,88,0.00,,,0.00,WUHU21623XXSP,2013-01-29 13:00:00,
2013-01-29 08:02:00,31.6,28.5,30.04,South,180,0.0,0.0,88,0.00,,,0.00,WUHU21623XXSP,2013-01-29 13:02:00,
2013-01-29 08:04:00,31.6,28.5,30.04,South,180,0.0,0.0,88,0.00,,,0.00,WUHU21623XXSP,2013-01-29 13:04:00,
2013-01-29 08:06:00,31.8,28.7,30.04,South,180,0.0,0.0,88,0.00,,,0.00,WUHU21623XXSP,2013-01-29 13:06:00,
2013-01-29 08:08:00,31.8,28.7,30.04,South,180,0.0,0.0,88,0.00,,,0.00,WUHU21623XXSP,2013-01-29 13:08:00,
2013-01-29 08:10:00,31.8,28.7,30.04,South,180,0.0,0.0,88,0.00,,,0.00,WUHU21623XXSP,2013-01-29 13:10:00,
2013-01-29 08:13:00,31.8,28.7,30.05,South,180,0.0,0.0,88,0.00,,,0.00,WUHU21623XXSP,2013-01-29 13:13:00,
2013-01-29 08:15:00,31.8,28.7,30.05,South,180,0.0,0.0,88,0.00,,,0.00,WUHU21623XXSP,2013-01-29 13:15:00,
2013-01-29 08:17:00,31.8,28.7,30.05,South,180,0.0,0.0,88,0.00,,,0.00,WUHU21623XXSP,2013-01-29 13:17:00,
2013-01-29 08:19:00,31.8,28.7,30.05,South,180,0.0,0.0,88,0.00,,,0.00,WUHU21623XXSP,2013-01-29 13:19:00,
2013-01-29 08:21:00,31.8,28.7,30.05,South,180,0.0,0.0,88,0.00,,,0.00,WUHU21623XXSP,2013-01-29 13:21:00,
2013-01-29 08:23:00,32.2,29.1,30.05,South,180,0.0,0.0,88,0.00,,,0.00,WUHU21623XXSP,2013-01-29 13:23:00,
2013-01-29 08:25:00,32.2,29.1,30.05,South,180,0.0,0.0,88,0.00,,,0.00,WUHU21623XXSP,2013-01-29 13:25:00,
2013-01-29 08:28:00,32.2,29.1,30.05,South,180,0.0,0.0,88,0.00,,,0.00,WUHU21623XXSP,2013-01-29 13:28:00,
2013-01-29 08:30:00,32.4,29.2,30.04,South,180,0.0,0.0,88,0.00,,,0.00,WUHU21623XXSP,2013-01-29 13:30:00,
2013-01-29 08:32:00,32.5,29.4,30.04,South,180,0.0,0.0,88,0.00,,,0.00,WUHU21623XXSP,2013-01-29 13:32:00,
2013-01-29 08:34:00,32.5,29.4,30.04,South,180,0.0,0.0,88,0.00,,,0.00,WUHU21623XXSP,2013-01-29 13:34:00,
2013-01-29 08:36:00,32.5,29.4,30.04,South,180,0.0,0.0,88,0.00,,,0.00,WUHU21623XXSP,2013-01-29 13:36:00,
2013-01-29 08:38:00,32.7,29.6,30.05,South,180,0.0,0.0,88,0.00,,,0.00,WUHU21623XXSP,2013-01-29 13:38:00,
2013-01-29 08:40:00,32.7,29.6,30.05,South,180,0.0,0.0,88,0.00,,,0.00,WUHU21623XXSP,2013-01-29 13:40:00,
2013-01-29 08:42:00,32.5,29.4,30.05,South,180,0.0,0.0,88,0.00,,,0.00,WUHU21623XXSP,2013-01-29 13:42:00,
2013-01-29 08:45:00,32.5,29.4,30.05,South,180,0.0,0.0,88,0.00,,,0.00,WUHU21623XXSP,2013-01-29 13:45:00,
2013-01-29 08:47:00,32.5,29.4,30.05,South,180,0.0,0.0,88,0.00,,,0.00,WUHU21623XXSP,2013-01-29 13:47:00,
2013-01-29 08:49:00,32.7,29.6,30.05,South,180,0.0,0.0,88,0.00,,,0.00,WUHU21623XXSP,2013-01-29 13:49:00,
2013-01-29 08:51:00,32.7,29.6,30.04,South,180,0.0,0.0,88,0.00,,,0.00,WUHU21623XXSP,2013-01-29 13:51:00,
2013-01-29 08:53:00,32.7,29.6,30.05,South,180,0.0,0.0,88,0.00,,,0.00,WUHU21623XXSP,2013-01-29 13:53:00,
2013-01-29 08:55:00,32.7,29.6,30.05,South,180,0.0,0.0,88,0.00,,,0.00,WUHU21623XXSP,2013-01-29 13:55:00,
2013-01-29 08:57:00,32.9,29.7,30.05,South,180,0.0,0.0,88,0.00,,,0.00,WUHU21623XXSP,2013-01-29 13:57:00,
2013-01-29 09:00:00,32.9,29.7,30.05,South,180,0.0,0.0,88,0.00,,,0.00,WUHU21623XXSP,2013-01-29 14:00:00,
2013-01-29 09:02:00,32.9,29.7,30.05,South,180,0.0,0.0,88,0.00,,,0.00,WUHU21623XXSP,2013-01-29 14:02:00,
2013-01-29 09:04:00,33.1,29.9,30.05,South,180,0.0,0.0,88,0.00,,,0.00,WUHU21623XXSP,2013-01-29 14:04:00,
2013-01-29 09:06:00,33.1,29.9,30.05,South,180,0.0,0.0,88,0.00,,,0.00,WUHU21623XXSP,2013-01-29 14:06:00,
2013-01-29 09:08:00,33.3,30.0,30.05,South,180,0.0,0.0,88,0.00,,,0.00,WUHU21623XXSP,2013-01-29 14:08:00,
2013-01-29 09:10:00,33.3,30.0,30.05,South,180,0.0,0.0,88,0.00,,,0.00,WUHU21623XXSP,2013-01-29 14:10:00,
2013-01-29 09:12:00,33.4,30.2,30.05,South,180,0.0,0.0,88,0.00,,,0.00,WUHU21623XXSP,2013-01-29 14:12:00,
2013-01-29 09:15:00,33.4,30.2,30.05,South,180,0.0,0.0,88,0.00,,,0.00,WUHU21623XXSP,2013-01-29 14:15:00,
2013-01-29 09:17:00,33.4,30.2,30.05,South,180,0.0,0.0,88,0.00,,,0.00,WUHU21623XXSP,2013-01-29 14:17:00,
2013-01-29 09:19:00,33.4,30.2,30.06,South,180,0.0,0.0,88,0.00,,,0.00,WUHU21623XXSP,2013-01-29 14:19:00,
2013-01-29 09:21:00,33.4,30.2,30.06,South,180,0.0,0.0,88,0.00,,,0.00,WUHU21623XXSP,2013-01-29 14:21:00,
2013-01-29 09:23:00,33.4,30.2,30.06,South,180,0.0,0.0,88,0.00,,,0.00,WUHU21623XXSP,2013-01-29 14:23:00,
2013-01-29 09:25:00,33.4,30.2,30.06,South,180,0.0,0.0,88,0.00,,,0.00,WUHU21623XXSP,2013-01-29 14:25:00,
2013-01-29 09:27:00,33.4,30.2,30.06,South,180,0.0,0.0,88,0.00,,,0.00,WUHU21623XXSP,2013-01-29 14:27:00,
2013-01-29 11:04:00,36.5,33.2,30.04,South,180,0.0,0.0,88,0.00,,,0.00,WUHU21623XXSP,2013-01-29 16:04:00,
2013-01-29 11:06:00,36.5,33.2,30.04,South,180,0.0,0.0,88,0.00,,,0.00,WUHU21623XXSP,2013-01-29 16:06:00,
2013-01-29 11:08:00,36.5,33.2,30.04,South,180,0.0,0.0,88,0.00,,,0.00,WUHU21623XXSP,2013-01-29 16:08:00,
2013-01-29 11:10:00,36.5,33.2,30.04,South,180,0.0,0.0,88,0.00,,,0.00,WUHU21623XXSP,2013-01-29 16:10:00,
2013-01-29 11:12:00,36.1,32.9,30.04,South,180,0.0,0.0,88,0.00,,,0.00,WUHU21623XXSP,2013-01-29 16:12:00,
2013-01-29 11:14:00,36.3,33.0,30.04,South,180,0.0,0.0,88,0.00,,,0.00,WUHU21623XXSP,2013-01-29 16:14:00,
2013-01-29 11:17:00,36.5,33.2,30.04,South,180,0.0,0.0,88,0.00,,,0.00,WUHU21623XXSP,2013-01-29 16:17:00,
2013-01-29 11:19:00,36.9,33.6,30.04,South,180,0.0,0.0,88,0.00,,,0.00,WUHU21623XXSP,2013-01-29 16:19:00,
2013-01-29 11:21:00,37.0,33.8,30.04,South,180,0.0,0.0,88,0.00,,,0.00,WUHU21623XXSP,2013-01-29 16:21:00,
2013-01-29 11:23:00,37.0,33.8,30.04,South,180,0.0,0.0,88,0.00,,,0.00,WUHU21623XXSP,2013-01-29 16:23:00,
2013-01-29 11:25:00,37.2,33.9,30.03,South,180,0.0,0.0,88,0.00,,,0.00,WUHU21623XXSP,2013-01-29 16:25:00,
2013-01-29 11:27:00,37.2,33.9,30.03,South,180,0.0,0.0,88,0.00,,,0.00,WUHU21623XXSP,2013-01-29 16:27:00,
2013-01-29 11:29:00,37.8,34.5,30.03,SSE,157,0.0,0.0,88,0.00,,,0.00,WUHU21623XXSP,2013-01-29 16:29:00,
2013-01-29 11:32:00,37.8,34.2,30.02,SE,135,0.0,0.0,87,0.00,,,0.00,WUHU21623XXSP,2013-01-29 16:32:00,
2013-01-29 11:34:00,37.8,34.2,30.02,ESE,112,2.0,2.0,87,0.00,,,0.00,WUHU21623XXSP,2013-01-29 16:34:00,
2013-01-29 11:36:00,37.6,34.0,30.01,SE,135,0.9,2.0,87,0.00,,,0.00,WUHU21623XXSP,2013-01-29 16:36:00,
2013-01-29 11:38:00,37.6,34.0,30.01,SE,135,2.2,2.2,87,0.00,,,0.00,WUHU21623XXSP,2013-01-29 16:38:00,
2013-01-29 11:40:00,37.8,34.2,30.01,SE,135,0.0,2.2,87,0.00,,,0.00,WUHU21623XXSP,2013-01-29 16:40:00,
2013-01-29 11:42:00,37.9,34.4,30.01,SE,135,0.4,2.2,87,0.00,,,0.00,WUHU21623XXSP,2013-01-29 16:42:00,
2013-01-29 11:45:00,38.1,34.6,30.01,ESE,112,0.0,2.2,87,0.00,,,0.00,WUHU21623XXSP,2013-01-29 16:45:00,
2013-01-29 11:47:00,38.5,34.9,30.01,ESE,112,0.0,2.2,87,0.00,,,0.00,WUHU21623XXSP,2013-01-29 16:47:00,
2013-01-29 11:49:00,38.5,34.6,30.01,ESE,112,0.0,0.4,86,0.00,,,0.00,WUHU21623XXSP,2013-01-29 16:49:00,
2013-01-29 11:51:00,38.8,35.0,30.01,SSE,157,0.0,0.4,86,0.00,,,0.00,WUHU21623XXSP,2013-01-29 16:51:00,
2013-01-29 11:53:00,39.0,35.2,30.01,ESE,112,0.0,0.0,86,0.00,,,0.00,WUHU21623XXSP,2013-01-29 16:53:00,
2013-01-29 11:55:00,39.2,35.3,30.01,SSE,157,7.6,7.6,86,0.00,,,0.00,WUHU21623XXSP,2013-01-29 16:55:00,
2013-01-29 11:57:00,39.2,35.1,30.01,SSE,157,5.6,7.6,85,0.00,,,0.00,WUHU21623XXSP,2013-01-29 16:57:00,
2013-01-29 11:59:00,39.4,35.2,30.01,SSE,157,0.0,7.6,85,0.00,,,0.00,WUHU21623XXSP,2013-01-29 16:59:00,
2013-01-29 12:02:00,39.7,35.6,30.01,SSE,157,0.0,7.6,85,0.00,,,0.00,WUHU21623XXSP,2013-01-29 17:02:00,
2013-01-29 12:04:00,39.9,35.7,30.01,South,180,1.8,7.6,85,0.00,,,0.00,WUHU21623XXSP,2013-01-29 17:04:00,
2013-01-29 12:06:00,39.9,35.4,30.01,South,180,2.7,5.6,84,0.00,,,0.00,WUHU21623XXSP,2013-01-29 17:06:00,
2013-01-29 12:08:00,39.7,35.3,30.00,South,180,1.8,2.7,84,0.00,,,0.00,WUHU21623XXSP,2013-01-29 17:08:00,
2013-01-29 12:10:00,39.7,35.6,30.00,SW,225,3.4,3.4,85,0.00,,,0.00,WUHU21623XXSP,2013-01-29 17:10:00,
2013-01-29 12:12:00,39.7,35.3,30.00,SSE,157,1.1,3.4,84,0.00,,,0.00,WUHU21623XXSP,2013-01-29 17:12:00,
2013-01-29 12:14:00,39.6,35.1,30.00,South,180,0.0,3.4,84,0.00,,,0.00,WUHU21623XXSP,2013-01-29 17:14:00,
2013-01-29 12:17:00,39.6,35.4,30.00,South,180,0.9,3.4,85,0.00,,,0.00,WUHU21623XXSP,2013-01-29 17:17:00,
2013-01-29 12:19:00,39.4,35.2,30.00,SSW,202,0.0,3.4,85,0.00,,,0.00,WUHU21623XXSP,2013-01-29 17:19:00,
2013-01-29 12:21:00,39.6,35.4,30.00,South,180,2.0,2.0,85,0.00,,,0.00,WUHU21623XXSP,2013-01-29 17:21:00,
2013-01-29 12:23:00,39.6,35.4,30.01,SSE,157,3.4,3.4,85,0.00,,,0.00,WUHU21623XXSP,2013-01-29 17:23:00,
2013-01-29 12:25:00,39.4,34.9,30.00,South,180,0.0,3.4,84,0.00,,,0.00,WUHU21623XXSP,2013-01-29 17:25:00,
2013-01-29 12:27:00,39.4,34.9,30.00,South,180,0.0,3.4,84,0.00,,,0.00,WUHU21623XXSP,2013-01-29 17:27:00,
2013-01-29 12:29:00,39.0,34.6,30.00,SSE,157,1.6,3.4,84,0.00,,,0.00,WUHU21623XXSP,2013-01-29 17:29:00,
2013-01-29 12:32:00,39.0,34.6,30.00,SSE,157,0.9,3.4,84,0.00,,,0.00,WUHU21623XXSP,2013-01-29 17:32:00,
2013-01-29 12:34:00,39.0,34.9,29.99,ESE,112,0.0,1.6,85,0.00,,,0.00,WUHU21623XXSP,2013-01-29 17:34:00,
2013-01-29 12:36:00,38.8,34.4,30.00,SE,135,0.0,1.6,84,0.00,,,0.00,WUHU21623XXSP,2013-01-29 17:36:00,
2013-01-29 12:38:00,38.5,34.1,30.00,ESE,112,3.1,3.1,84,0.00,,,0.00,WUHU21623XXSP,2013-01-29 17:38:00,
2013-01-29 12:40:00,38.3,34.2,30.00,SSE,157,0.0,3.1,85,0.00,,,0.00,WUHU21623XXSP,2013-01-29 17:40:00,
2013-01-29 12:42:00,38.1,33.7,29.99,SSE,157,2.7,3.1,84,0.00,,,0.00,WUHU21623XXSP,2013-01-29 17:42:00,
2013-01-29 12:44:00,37.9,33.8,29.98,ESE,112,0.0,3.1,85,0.00,,,0.00,WUHU21623XXSP,2013-01-29 17:44:00,
2013-01-29 12:46:00,37.9,33.8,29.98,ESE,112,5.4,5.4,85,0.00,,,0.00,WUHU21623XXSP,2013-01-29 17:46:00,
2013-01-29 12:49:00,37.9,33.8,29.98,SE,135,1.1,5.4,85,0.00,,,0.00,WUHU21623XXSP,2013-01-29 17:49:00,
2013-01-29 12:51:00,37.9,33.8,29.98,ESE,112,6.3,6.3,85,0.00,,,0.00,WUHU21623XXSP,2013-01-29 17:51:00,
2013-01-29 12:53:00,37.9,33.8,29.98,ESE,112,3.4,6.3,85,0.00,,,0.00,WUHU21623XXSP,2013-01-29 17:53:00,
2013-01-29 12:55:00,37.9,33.8,29.98,ESE,112,7.6,7.6,85,0.00,,,0.00,WUHU21623XXSP,2013-01-29 17:55:00,
2013-01-29 12:57:00,37.9,33.8,29.97,ESE,112,1.6,7.6,85,0.00,,,0.00,WUHU21623XXSP,2013-01-29 17:57:00,
2013-01-29 12:59:00,37.9,33.8,29.96,ENE,67,4.3,7.6,85,0.00,,,0.00,WUHU21623XXSP,2013-01-29 17:59:00,
2013-01-29 13:01:00,37.9,33.8,29.96,SE,135,2.5,7.6,85,0.00,,,0.00,WUHU21623XXSP,2013-01-29 18:01:00,
2013-01-29 13:04:00,37.9,33.8,29.95,SE,135,2.7,7.6,85,0.00,,,0.00,WUHU21623XXSP,2013-01-29 18:04:00,
2013-01-29 13:06:00,37.9,33.8,29.95,ESE,112,6.0,6.0,85,0.00,,,0.00,WUHU21623XXSP,2013-01-29 18:06:00,
2013-01-29 13:08:00,37.9,33.8,29.95,SE,135,4.5,6.0,85,0.00,,,0.00,WUHU21623XXSP,2013-01-29 18:08:00,
2013-01-29 13:10:00,37.9,33.8,29.95,SSE,157,2.2,6.0,85,0.00,,,0.00,WUHU21623XXSP,2013-01-29 18:10:00,
2013-01-29 13:12:00,38.1,34.0,29.95,SE,135,1.1,6.0,85,0.00,,,0.00,WUHU21623XXSP,2013-01-29 18:12:00,
2013-01-29 13:14:00,37.9,33.8,29.95,SE,135,1.1,6.0,85,0.00,,,0.00,WUHU21623XXSP,2013-01-29 18:14:00,
2013-01-29 13:16:00,38.1,34.0,29.96,SE,135,1.1,4.5,85,0.00,,,0.00,WUHU21623XXSP,2013-01-29 18:16:00,
2013-01-29 13:19:00,38.3,34.2,29.97,SE,135,1.1,2.2,85,0.00,,,0.00,WUHU21623XXSP,2013-01-29 18:19:00,
2013-01-29 13:21:00,38.3,34.2,29.97,SE,135,1.1,1.1,85,0.00,,,0.00,WUHU21623XXSP,2013-01-29 18:21:00,
2013-01-29 13:23:00,38.3,34.2,29.97,SE,135,1.1,1.1,85,0.00,,,0.00,WUHU21623XXSP,2013-01-29 18:23:00,
2013-01-29 13:25:00,38.3,34.2,29.97,SE,135,1.1,1.1,85,0.00,,,0.00,WUHU21623XXSP,2013-01-29 18:25:00,
2013-01-29 13:26:00,37.9,33.8,29.95,SSE,157,2.2,6.0,85,0.00,,,0.00,WUHU21623XXSP,2013-01-29 18:26:00,
2013-01-29 13:27:00,38.3,34.2,29.98,SE,135,1.1,1.1,85,0.00,,,0.00,WUHU21623XXSP,2013-01-29 18:27:00,
2013-01-29 13:29:00,38.3,34.2,29.99,SE,135,1.1,1.1,85,0.00,,,0.00,WUHU21623XXSP,2013-01-29 18:29:00,
2013-01-29 13:31:00,38.3,34.2,29.98,SE,135,1.1,1.1,85,0.00,,,0.00,WUHU21623XXSP,2013-01-29 18:31:00,
2013-01-29 13:33:00,38.3,34.2,29.98,SE,135,1.1,1.1,85,0.00,,,0.00,WUHU21623XXSP,2013-01-29 18:33:00,
2013-01-29 13:36:00,38.3,34.2,29.98,SE,135,1.1,1.1,85,0.00,,,0.00,WUHU21623XXSP,2013-01-29 18:36:00,
2013-01-29 13:38:00,37.9,33.8,29.98,SE,135,1.1,1.1,85,0.00,,,0.00,WUHU21623XXSP,2013-01-29 18:38:00,
2013-01-29 13:40:00,37.9,33.8,29.98,SE,135,1.1,1.1,85,0.00,,,0.00,WUHU21623XXSP,2013-01-29 18:40:00,
2013-01-29 13:42:00,37.9,33.8,29.98,SE,135,1.1,1.1,85,0.00,,,0.00,WUHU21623XXSP,2013-01-29 18:42:00,
2013-01-29 13:44:00,37.6,33.4,29.98,SE,135,1.1,1.1,85,0.00,,,0.00,WUHU21623XXSP,2013-01-29 18:44:00,
2013-01-29 13:46:00,37.2,33.1,29.98,SSE,157,0.0,1.1,85,0.00,,,0.00,WUHU21623XXSP,2013-01-29 18:46:00,
2013-01-29 13:49:00,37.2,33.1,29.99,SSE,157,0.0,1.1,85,0.00,,,0.00,WUHU21623XXSP,2013-01-29 18:49:00,
2013-01-29 13:51:00,37.2,33.1,29.99,SSE,157,3.4,3.4,85,0.00,,,0.00,WUHU21623XXSP,2013-01-29 18:51:00,
2013-01-29 13:53:00,37.2,33.1,29.99,SSE,157,0.0,3.4,85,0.00,,,0.00,WUHU21623XXSP,2013-01-29 18:53:00,
2013-01-29 13:55:00,37.0,33.2,29.99,SSE,157,2.5,3.4,86,0.00,,,0.00,WUHU21623XXSP,2013-01-29 18:55:00,
2013-01-29 13:57:00,37.0,33.2,29.99,SSE,157,0.0,3.4,86,0.00,,,0.00,WUHU21623XXSP,2013-01-29 18:57:00,
2013-01-29 13:59:00,36.9,33.0,29.98,SE,135,3.4,3.4,86,0.00,,,0.00,WUHU21623XXSP,2013-01-29 18:59:00,
2013-01-29 14:01:00,36.7,32.5,29.98,SE,135,0.9,3.4,85,0.00,,,0.00,WUHU21623XXSP,2013-01-29 19:01:00,
2013-01-29 14:04:00,36.3,32.2,29.98,ESE,112,6.0,6.0,85,0.00,,,0.00,WUHU21623XXSP,2013-01-29 19:04:00,
2013-01-29 14:06:00,36.1,32.0,29.98,SSE,157,3.4,6.0,85,0.00,,,0.00,WUHU21623XXSP,2013-01-29 19:06:00,
2013-01-29 14:08:00,35.8,31.9,29.97,SE,135,5.1,6.0,86,0.00,,,0.00,WUHU21623XXSP,2013-01-29 19:08:00,
2013-01-29 14:10:00,35.8,31.9,29.97,ESE,112,3.4,6.0,86,0.00,,,0.00,WUHU21623XXSP,2013-01-29 19:10:00,
2013-01-29 14:12:00,35.8,31.9,29.97,ESE,112,5.1,6.0,86,0.00,,,0.00,WUHU21623XXSP,2013-01-29 19:12:00,
2013-01-29 14:14:00,35.8,31.9,29.97,SE,135,3.8,5.1,86,0.00,,,0.00,WUHU21623XXSP,2013-01-29 19:14:00,
2013-01-29 14:16:00,35.8,31.9,29.96,ESE,112,1.6,5.1,86,0.00,,,0.00,WUHU21623XXSP,2013-01-29 19:16:00,
2013-01-29 14:18:00,35.8,31.9,29.96,SE,135,7.2,7.2,86,0.00,,,0.00,WUHU21623XXSP,2013-01-29 19:18:00,
2013-01-29 14:21:00,36.0,32.1,29.96,SE,135,0.0,7.2,86,0.00,,,0.00,WUHU21623XXSP,2013-01-29 19:21:00,
2013-01-29 14:23:00,36.1,32.3,29.96,SE,135,4.9,7.2,86,0.00,,,0.00,WUHU21623XXSP,2013-01-29 19:23:00,
2013-01-29 14:25:00,36.1,32.3,29.95,SE,135,6.9,7.2,86,0.00,,,0.00,WUHU21623XXSP,2013-01-29 19:25:00,
2013-01-29 14:27:00,36.3,32.5,29.94,SE,135,6.9,7.2,86,0.00,,,0.00,WUHU21623XXSP,2013-01-29 19:27:00,
2013-01-29 14:29:00,36.3,32.5,29.93,SE,135,2.7,6.9,86,0.00,,,0.00,WUHU21623XXSP,2013-01-29 19:29:00,
2013-01-29 14:32:00,36.7,32.8,29.92,SE,135,2.9,6.9,86,0.00,,,0.00,WUHU21623XXSP,2013-01-29 19:32:00,
2013-01-29 14:33:00,36.7,32.8,29.90,ESE,112,6.3,6.9,86,0.00,,,0.00,WUHU21623XXSP,2013-01-29 19:33:00,
2013-01-29 14:36:00,36.7,32.8,29.90,SE,135,6.5,6.9,86,0.00,,,0.00,WUHU21623XXSP,2013-01-29 19:36:00,
2013-01-29 14:38:00,36.7,32.8,29.89,SE,135,7.4,7.4,86,0.00,,,0.00,WUHU21623XXSP,2013-01-29 19:38:00,
2013-01-29 14:40:00,36.9,33.0,29.90,SE,135,6.0,7.4,86,0.00,,,0.00,WUHU21623XXSP,2013-01-29 19:40:00,
2013-01-29 14:42:00,37.0,33.2,29.91,SE,135,7.2,7.4,86,0.00,,,0.00,WUHU21623XXSP,2013-01-29 19:42:00,
2013-01-29 14:44:00,37.2,33.1,29.92,SSE,157,6.7,7.4,85,0.00,,,0.00,WUHU21623XXSP,2013-01-29 19:44:00,
2013-01-29 14:46:00,37.2,33.1,29.92,ENE,67,4.7,7.4,85,0.00,,,0.00,WUHU21623XXSP,2013-01-29 19:46:00,
2013-01-29 14:48:00,37.2,33.1,29.93,ESE,112,4.5,7.2,85,0.00,,,0.00,WUHU21623XXSP,2013-01-29 19:48:00,
2013-01-29 14:51:00,37.4,33.3,29.93,ESE,112,0.7,7.2,85,0.00,,,0.00,WUHU21623XXSP,2013-01-29 19:51:00,
2013-01-29 14:53:00,37.4,33.3,29.94,ESE,112,0.7,6.7,85,0.00,,,0.00,WUHU21623XXSP,2013-01-29 19:53:00,
2013-01-29 14:55:00,37.4,33.3,29.94,SSE,157,2.2,4.7,85,0.00,,,0.00,WUHU21623XXSP,2013-01-29 19:55:00,
2013-01-29 14:57:00,37.8,33.6,29.94,SSE,157,0.0,4.5,85,0.00,,,0.00,WUHU21623XXSP,2013-01-29 19:57:00,
2013-01-29 14:59:00,37.8,33.6,29.94,SSE,157,5.8,5.8,85,0.00,,,0.00,WUHU21623XXSP,2013-01-29 19:59:00,
2013-01-29 15:01:00,37.8,33.6,29.95,SSE,157,5.8,5.8,85,0.00,,,0.00,WUHU21623XXSP,2013-01-29 20:01:00,
2013-01-29 15:04:00,37.8,33.6,29.95,SSE,157,0.0,5.8,85,0.00,,,0.00,WUHU21623XXSP,2013-01-29 20:04:00,
2013-01-29 15:06:00,37.8,33.6,29.95,SSE,157,0.0,5.8,85,0.00,,,0.00,WUHU21623XXSP,2013-01-29 20:06:00,
2013-01-29 15:08:00,37.8,33.6,29.94,ESE,112,4.0,5.8,85,0.00,,,0.00,WUHU21623XXSP,2013-01-29 20:08:00,
2013-01-29 15:10:00,37.8,33.6,29.95,ESE,112,0.2,5.8,85,0.00,,,0.00,WUHU21623XXSP,2013-01-29 20:10:00,
2013-01-29 15:12:00,37.6,33.4,29.94,East,90,5.4,5.4,85,0.00,,,0.00,WUHU21623XXSP,2013-01-29 20:12:00,
2013-01-29 15:14:00,37.8,33.6,29.94,SE,135,3.1,5.4,85,0.00,,,0.00,WUHU21623XXSP,2013-01-29 20:14:00,
2013-01-29 15:16:00,37.6,33.4,29.94,SE,135,0.9,5.4,85,0.00,,,0.00,WUHU21623XXSP,2013-01-29 20:16:00,
2013-01-29 15:18:00,37.6,33.4,29.94,SE,135,1.1,5.4,85,0.00,,,0.00,WUHU21623XXSP,2013-01-29 20:18:00,
2013-01-29 15:21:00,37.8,33.6,29.94,SE,135,0.2,5.4,85,0.00,,,0.00,WUHU21623XXSP,2013-01-29 20:21:00,
2013-01-29 15:23:00,37.8,33.6,29.94,ESE,112,4.7,4.7,85,0.00,,,0.00,WUHU21623XXSP,2013-01-29 20:23:00,
2013-01-29 15:25:00,37.8,33.6,29.93,SE,135,6.5,6.5,85,0.00,,,0.00,WUHU21623XXSP,2013-01-29 20:25:00,
2013-01-29 15:27:00,37.8,33.6,29.93,SE,135,6.5,6.5,85,0.00,,,0.00,WUHU21623XXSP,2013-01-29 20:27:00,
2013-01-29 15:29:00,37.9,33.8,29.93,ESE,112,6.0,6.5,85,0.00,,,0.00,WUHU21623XXSP,2013-01-29 20:29:00,
2013-01-29 15:31:00,37.6,33.4,29.93,East,90,6.9,6.9,85,0.00,,,0.00,WUHU21623XXSP,2013-01-29 20:31:00,
2013-01-29 15:33:00,37.6,33.4,29.93,East,90,7.8,7.8,85,0.00,,,0.00,WUHU21623XXSP,2013-01-29 20:33:00,
2013-01-29 15:36:00,37.6,33.4,29.93,SE,135,4.9,7.8,85,0.00,,,0.00,WUHU21623XXSP,2013-01-29 20:36:00,
2013-01-29 15:38:00,37.8,33.6,29.93,SE,135,4.9,7.8,85,0.00,,,0.00,WUHU21623XXSP,2013-01-29 20:38:00,
2013-01-29 15:40:00,37.9,33.8,29.93,SE,135,7.6,7.8,85,0.00,,,0.00,WUHU21623XXSP,2013-01-29 20:40:00,
2013-01-29 15:42:00,37.9,33.8,29.92,SE,135,3.6,7.8,85,0.00,,,0.00,WUHU21623XXSP,2013-01-29 20:42:00,
2013-01-29 15:44:00,37.9,33.8,29.92,SSE,157,0.9,7.6,85,0.00,,,0.00,WUHU21623XXSP,2013-01-29 20:44:00,
2013-01-29 15:46:00,37.9,33.8,29.92,SE,135,7.8,7.8,85,0.00,,,0.00,WUHU21623XXSP,2013-01-29 20:46:00,
2013-01-29 15:48:00,37.9,33.8,29.92,East,90,5.1,7.8,85,0.00,,,0.00,WUHU21623XXSP,2013-01-29 20:48:00,
2013-01-29 15:51:00,37.9,33.8,29.92,SE,135,6.0,7.8,85,0.00,,,0.00,WUHU21623XXSP,2013-01-29 20:51:00,
2013-01-29 15:53:00,38.1,33.7,29.92,ESE,112,7.8,7.8,84,0.00,,,0.00,WUHU21623XXSP,2013-01-29 20:53:00,
2013-01-29 15:55:00,38.1,33.7,29.92,SE,135,6.0,7.8,84,0.00,,,0.00,WUHU21623XXSP,2013-01-29 20:55:00,
2013-01-29 15:57:00,38.1,33.7,29.92,ESE,112,1.3,7.8,84,0.00,,,0.00,WUHU21623XXSP,2013-01-29 20:57:00,
2013-01-29 15:59:00,38.1,33.7,29.92,SE,135,4.0,7.8,84,0.00,,,0.00,WUHU21623XXSP,2013-01-29 20:59:00,
2013-01-29 16:01:00,38.1,33.7,29.93,SE,135,4.0,7.8,84,0.00,,,0.00,WUHU21623XXSP,2013-01-29 21:01:00,
2013-01-29 16:03:00,38.1,33.7,29.93,South,180,4.9,6.0,84,0.00,,,0.00,WUHU21623XXSP,2013-01-29 21:03:00,
2013-01-29 16:05:00,37.9,33.5,29.93,SSE,157,4.0,4.9,84,0.00,,,0.00,WUHU21623XXSP,2013-01-29 21:05:00,
2013-01-29 16:08:00,37.9,33.5,29.93,ESE,112,5.6,5.6,84,0.00,,,0.00,WUHU21623XXSP,2013-01-29 21:08:00,
2013-01-29 16:10:00,37.8,33.3,29.93,East,90,3.8,5.6,84,0.00,,,0.00,WUHU21623XXSP,2013-01-29 21:10:00,
2013-01-29 16:12:00,37.6,33.2,29.94,South,180,3.6,5.6,84,0.00,,,0.00,WUHU21623XXSP,2013-01-29 21:12:00,
2013-01-29 16:14:00,37.6,33.4,29.93,ESE,112,6.3,6.3,85,0.00,,,0.00,WUHU21623XXSP,2013-01-29 21:14:00,
2013-01-29 16:16:00,37.2,33.1,29.93,SE,135,0.0,6.3,85,0.00,,,0.00,WUHU21623XXSP,2013-01-29 21:16:00,
2013-01-29 16:18:00,37.2,33.1,29.93,SE,135,4.5,6.3,85,0.00,,,0.00,WUHU21623XXSP,2013-01-29 21:18:00,
2013-01-29 16:20:00,37.2,33.1,29.93,South,180,11.4,11.4,85,0.00,,,0.00,WUHU21623XXSP,2013-01-29 21:20:00,
2013-01-29 16:23:00,37.0,32.9,29.93,SSE,157,5.1,11.4,85,0.00,,,0.00,WUHU21623XXSP,2013-01-29 21:23:00,
2013-01-29 16:25:00,36.9,32.7,29.93,SSE,157,3.8,11.4,85,0.00,,,0.00,WUHU21623XXSP,2013-01-29 21:25:00,
2013-01-29 16:27:00,36.7,32.5,29.93,SSE,157,8.3,11.4,85,0.00,,,0.00,WUHU21623XXSP,2013-01-29 21:27:00,
2013-01-29 16:29:00,36.7,32.8,29.93,SSE,157,2.9,11.4,86,0.00,,,0.00,WUHU21623XXSP,2013-01-29 21:29:00,
2013-01-29 16:31:00,36.5,32.6,29.94,South,180,2.0,8.3,86,0.00,,,0.00,WUHU21623XXSP,2013-01-29 21:31:00,
2013-01-29 16:33:00,36.5,32.6,29.94,South,180,1.8,8.3,86,0.00,,,0.00,WUHU21623XXSP,2013-01-29 21:33:00,
2013-01-29 16:35:00,36.5,32.6,29.94,SSE,157,0.0,8.3,86,0.00,,,0.00,WUHU21623XXSP,2013-01-29 21:35:00,
2013-01-29 16:38:00,36.3,32.5,29.93,SSE,157,2.7,2.9,86,0.00,,,0.00,WUHU21623XXSP,2013-01-29 21:38:00,
2013-01-29 16:40:00,36.1,32.3,29.93,SSE,157,0.0,2.7,86,0.00,,,0.00,WUHU21623XXSP,2013-01-29 21:40:00,
2013-01-29 16:42:00,36.0,32.1,29.93,SSE,157,2.0,2.7,86,0.00,,,0.00,WUHU21623XXSP,2013-01-29 21:42:00,
2013-01-29 16:44:00,35.8,31.9,29.93,SSW,202,3.6,3.6,86,0.00,,,0.00,WUHU21623XXSP,2013-01-29 21:44:00,
2013-01-29 16:46:00,35.8,31.9,29.93,SSW,202,3.6,3.6,86,0.00,,,0.00,WUHU21623XXSP,2013-01-29 21:46:00,
2013-01-29 16:48:00,35.6,31.7,29.93,ESE,112,6.3,6.3,86,0.00,,,0.00,WUHU21623XXSP,2013-01-29 21:48:00,
2013-01-29 16:50:00,35.4,31.6,29.93,ESE,112,2.9,6.3,86,0.00,,,0.00,WUHU21623XXSP,2013-01-29 21:50:00,
2013-01-29 16:53:00,35.4,31.6,29.93,SSE,157,3.6,6.3,86,0.00,,,0.00,WUHU21623XXSP,2013-01-29 21:53:00,
2013-01-29 16:55:00,35.4,31.6,29.93,SSE,157,3.6,6.3,86,0.00,,,0.00,WUHU21623XXSP,2013-01-29 21:55:00,
2013-01-29 16:57:00,35.2,31.4,29.93,SSE,157,2.2,6.3,86,0.00,,,0.00,WUHU21623XXSP,2013-01-29 21:57:00,
2013-01-29 16:59:00,35.2,31.7,29.93,SSE,157,4.9,4.9,87,0.00,,,0.00,WUHU21623XXSP,2013-01-29 21:59:00,
2013-01-29 17:01:00,35.2,31.7,29.93,SE,135,3.6,4.9,87,0.00,,,0.00,WUHU21623XXSP,2013-01-29 22:01:00,
2013-01-29 17:03:00,35.2,31.7,29.93,SSW,202,0.0,4.9,87,0.00,,,0.00,WUHU21623XXSP,2013-01-29 22:03:00,
2013-01-29 17:05:00,35.2,31.7,29.93,SE,135,0.0,4.9,87,0.00,,,0.00,WUHU21623XXSP,2013-01-29 22:05:00,
2013-01-29 17:08:00,35.2,31.7,29.93,SE,135,0.0,4.9,87,0.00,,,0.00,WUHU21623XXSP,2013-01-29 22:08:00,
2013-01-29 17:10:00,35.2,31.7,29.93,South,180,2.5,3.6,87,0.00,,,0.00,WUHU21623XXSP,2013-01-29 22:10:00,
2013-01-29 17:12:00,35.2,31.7,29.93,South,180,7.2,7.2,87,0.00,,,0.00,WUHU21623XXSP,2013-01-29 22:12:00,
2013-01-29 17:14:00,35.2,31.7,29.93,SSE,157,3.1,7.2,87,0.00,,,0.00,WUHU21623XXSP,2013-01-29 22:14:00,
2013-01-29 17:16:00,35.2,31.7,29.93,ESE,112,7.2,7.2,87,0.00,,,0.00,WUHU21623XXSP,2013-01-29 22:16:00,
2013-01-29 17:18:00,35.2,31.7,29.94,SE,135,2.9,7.2,87,0.00,,,0.00,WUHU21623XXSP,2013-01-29 22:18:00,
2013-01-29 17:20:00,35.2,31.7,29.94,SSE,157,0.0,7.2,87,0.00,,,0.00,WUHU21623XXSP,2013-01-29 22:20:00,
2013-01-29 17:23:00,35.2,31.7,29.94,ESE,112,0.4,7.2,87,0.00,,,0.00,WUHU21623XXSP,2013-01-29 22:23:00,
2013-01-29 17:25:00,35.2,31.7,29.94,ESE,112,0.0,7.2,87,0.00,,,0.00,WUHU21623XXSP,2013-01-29 22:25:00,
2013-01-29 17:27:00,35.2,31.7,29.95,ESE,112,1.8,2.9,87,0.00,,,0.00,WUHU21623XXSP,2013-01-29 22:27:00,
2013-01-29 17:29:00,35.2,31.7,29.94,ESE,112,1.8,1.8,87,0.00,,,0.00,WUHU21623XXSP,2013-01-29 22:29:00,
2013-01-29 17:31:00,35.2,31.7,29.95,ESE,112,1.8,1.8,87,0.00,,,0.00,WUHU21623XXSP,2013-01-29 22:31:00,
2013-01-29 17:33:00,34.9,31.3,29.95,SSE,157,0.0,1.8,87,0.00,,,0.00,WUHU21623XXSP,2013-01-29 22:33:00,
2013-01-29 17:35:00,34.9,31.3,29.94,SSE,157,4.0,4.0,87,0.00,,,0.00,WUHU21623XXSP,2013-01-29 22:35:00,
2013-01-29 17:38:00,34.9,31.6,29.94,SSE,157,2.7,4.0,88,0.00,,,0.00,WUHU21623XXSP,2013-01-29 22:38:00,
2013-01-29 17:40:00,34.9,31.6,29.94,SE,135,2.7,4.0,88,0.00,,,0.00,WUHU21623XXSP,2013-01-29 22:40:00,
2013-01-29 17:42:00,34.9,31.6,29.94,SE,135,1.6,4.0,88,0.00,,,0.00,WUHU21623XXSP,2013-01-29 22:42:00,
2013-01-29 17:44:00,34.9,31.6,29.93,SSE,157,2.5,4.0,88,0.00,,,0.00,WUHU21623XXSP,2013-01-29 22:44:00,
2013-01-29 17:46:00,34.9,31.6,29.93,SSE,157,7.4,7.4,88,0.00,,,0.00,WUHU21623XXSP,2013-01-29 22:46:00,
2013-01-29 17:48:00,34.9,31.6,29.93,SSE,157,4.5,7.4,88,0.00,,,0.00,WUHU21623XXSP,2013-01-29 22:48:00,
2013-01-29 17:50:00,34.9,31.6,29.92,SSE,157,6.3,7.4,88,0.00,,,0.00,WUHU21623XXSP,2013-01-29 22:50:00,
2013-01-29 17:53:00,34.9,31.6,29.92,SE,135,6.3,7.4,88,0.00,,,0.00,WUHU21623XXSP,2013-01-29 22:53:00,
2013-01-29 17:55:00,35.1,31.8,29.92,ESE,112,6.0,7.4,88,0.00,,,0.00,WUHU21623XXSP,2013-01-29 22:55:00,
2013-01-29 17:57:00,35.2,32.0,29.92,SSE,157,3.6,6.3,88,0.00,,,0.00,WUHU21623XXSP,2013-01-29 22:57:00,
2013-01-29 17:59:00,35.2,32.0,29.92,SE,135,0.0,6.3,88,0.00,,,0.00,WUHU21623XXSP,2013-01-29 22:59:00,
2013-01-29 18:01:00,35.2,32.0,29.92,SSE,157,1.6,6.3,88,0.00,,,0.00,WUHU21623XXSP,2013-01-29 23:01:00,
2013-01-29 18:03:00,35.2,32.0,29.92,SSE,157,5.1,6.0,88,0.00,,,0.00,WUHU21623XXSP,2013-01-29 23:03:00,
2013-01-29 18:05:00,35.4,32.1,29.92,SSE,157,1.6,5.1,88,0.00,,,0.00,WUHU21623XXSP,2013-01-29 23:05:00,
2013-01-29 18:07:00,35.4,32.1,29.92,SSE,157,0.0,5.1,88,0.00,,,0.00,WUHU21623XXSP,2013-01-29 23:07:00,
2013-01-29 18:10:00,35.4,32.1,29.92,SSE,157,7.2,7.2,88,0.00,,,0.00,WUHU21623XXSP,2013-01-29 23:10:00,
2013-01-29 18:12:00,35.4,32.1,29.92,SE,135,5.6,7.2,88,0.00,,,0.00,WUHU21623XXSP,2013-01-29 23:12:00,
2013-01-29 18:14:00,35.4,32.1,29.92,ESE,112,1.8,7.2,88,0.00,,,0.00,WUHU21623XXSP,2013-01-29 23:14:00,
2013-01-29 18:16:00,35.4,32.1,29.92,SSE,157,8.3,8.3,88,0.00,,,0.00,WUHU21623XXSP,2013-01-29 23:16:00,
2013-01-29 18:18:00,35.4,32.1,29.92,SSE,157,2.9,8.3,88,0.00,,,0.00,WUHU21623XXSP,2013-01-29 23:18:00,
2013-01-29 18:20:00,35.6,32.3,29.92,SE,135,0.9,8.3,88,0.00,,,0.00,WUHU21623XXSP,2013-01-29 23:20:00,
2013-01-29 18:22:00,35.8,32.5,29.92,SSE,157,0.0,8.3,88,0.00,,,0.00,WUHU21623XXSP,2013-01-29 23:22:00,
2013-01-29 18:25:00,35.8,32.5,29.92,SSE,157,5.6,8.3,88,0.00,,,0.00,WUHU21623XXSP,2013-01-29 23:25:00,
2013-01-29 18:27:00,35.8,32.5,29.92,SE,135,0.9,5.6,88,0.00,,,0.00,WUHU21623XXSP,2013-01-29 23:27:00,
2013-01-29 18:29:00,36.0,32.7,29.92,South,180,7.4,7.4,88,0.00,,,0.00,WUHU21623XXSP,2013-01-29 23:29:00,
2013-01-29 18:31:00,36.0,32.7,29.92,ENE,67,4.5,7.4,88,0.00,,,0.00,WUHU21623XXSP,2013-01-29 23:31:00,
2013-01-29 18:33:00,36.1,32.9,29.92,ESE,112,1.3,7.4,88,0.00,,,0.00,WUHU21623XXSP,2013-01-29 23:33:00,
2013-01-29 18:35:00,36.1,32.9,29.92,East,90,5.8,7.4,88,0.00,,,0.00,WUHU21623XXSP,2013-01-29 23:35:00,
2013-01-29 18:37:00,36.3,33.0,29.93,SE,135,0.7,7.4,88,0.00,,,0.00,WUHU21623XXSP,2013-01-29 23:37:00,
2013-01-29 18:40:00,36.3,33.0,29.93,NE,45,1.1,5.8,88,0.00,,,0.00,WUHU21623XXSP,2013-01-29 23:40:00,
2013-01-29 18:42:00,36.3,33.0,29.92,SE,135,1.8,5.8,88,0.00,,,0.00,WUHU21623XXSP,2013-01-29 23:42:00,
2013-01-29 18:44:00,36.3,33.0,29.92,ESE,112,5.4,5.8,88,0.00,,,0.00,WUHU21623XXSP,2013-01-29 23:44:00,
2013-01-29 18:46:00,36.5,33.2,29.92,ESE,112,3.6,5.4,88,0.00,,,0.00,WUHU21623XXSP,2013-01-29 23:46:00,
2013-01-29 18:48:00,36.5,33.2,29.92,ESE,112,3.6,5.4,88,0.00,,,0.00,WUHU21623XXSP,2013-01-29 23:48:00,
2013-01-29 18:50:00,36.7,33.4,29.92,East,90,0.0,5.4,88,0.00,,,0.00,WUHU21623XXSP,2013-01-29 23:50:00,
2013-01-29 18:52:00,36.7,33.4,29.93,East,90,3.6,5.4,88,0.00,,,0.00,WUHU21623XXSP,2013-01-29 23:52:00,
2013-01-29 18:54:00,36.7,33.4,29.93,East,90,3.6,3.6,88,0.00,,,0.00,WUHU21623XXSP,2013-01-29 23:54:00,
2013-01-29 18:57:00,36.7,33.4,29.93,East,90,3.6,3.6,88,0.00,,,0.00,WUHU21623XXSP,2013-01-29 23:57:00,
2013-01-29 18:59:00,36.7,33.4,29.93,East,90,3.6,3.6,88,0.00,,,0.00,WUHU21623XXSP,2013-01-29 23:59:00,
2013-01-29 19:01:00,36.7,33.4,29.93,East,90,3.6,3.6,88,0.00,,,0.00,WUHU21623XXSP,2013-01-30 00:01:00,
2013-01-29 19:03:00,36.7,33.4,29.93,East,90,0.0,3.6,88,0.00,,,0.00,WUHU21623XXSP,2013-01-30 00:03:00,
2013-01-29 19:05:00,36.7,33.4,29.93,East,90,0.0,3.6,88,0.00,,,0.00,WUHU21623XXSP,2013-01-30 00:05:00,
2013-01-29 19:07:00,37.4,34.1,29.93,ESE,112,2.5,3.6,88,0.00,,,0.00,WUHU21623XXSP,2013-01-30 00:07:00,
2013-01-29 19:09:00,37.4,34.1,29.92,ESE,112,2.5,3.6,88,0.00,,,0.00,WUHU21623XXSP,2013-01-30 00:09:00,
2013-01-29 19:12:00,37.4,34.1,29.92,ESE,112,2.5,2.5,88,0.00,,,0.00,WUHU21623XXSP,2013-01-30 00:12:00,
2013-01-29 19:14:00,37.4,34.1,29.92,ESE,112,2.5,2.5,88,0.00,,,0.00,WUHU21623XXSP,2013-01-30 00:14:00,
2013-01-29 19:16:00,37.4,34.1,29.92,ESE,112,2.5,2.5,88,0.00,,,0.00,WUHU21623XXSP,2013-01-30 00:16:00,
2013-01-29 19:18:00,38.1,34.8,29.92,SE,135,0.0,2.5,88,0.00,,,0.00,WUHU21623XXSP,2013-01-30 00:18:00,
2013-01-29 19:20:00,38.1,34.8,29.92,SE,135,0.0,2.5,88,0.00,,,0.00,WUHU21623XXSP,2013-01-30 00:20:00,
2013-01-29 19:22:00,38.1,34.8,29.92,ESE,112,6.0,6.0,88,0.00,,,0.00,WUHU21623XXSP,2013-01-30 00:22:00,
2013-01-29 19:24:00,38.1,34.8,29.91,ESE,112,6.0,6.0,88,0.00,,,0.00,WUHU21623XXSP,2013-01-30 00:24:00,
2013-01-29 19:27:00,38.1,34.8,29.91,ESE,112,6.0,6.0,88,0.00,,,0.00,WUHU21623XXSP,2013-01-30 00:27:00,
2013-01-29 19:29:00,38.1,34.8,29.91,ESE,112,6.0,6.0,88,0.00,,,0.00,WUHU21623XXSP,2013-01-30 00:29:00,
2013-01-29 19:31:00,38.1,34.8,29.91,ESE,112,6.0,6.0,88,0.00,,,0.00,WUHU21623XXSP,2013-01-30 00:31:00,
2013-01-29 19:33:00,38.1,34.8,29.91,ESE,112,6.0,6.0,88,0.00,,,0.00,WUHU21623XXSP,2013-01-30 00:33:00,
2013-01-29 20:24:00,39.0,35.7,29.90,SE,135,3.8,3.8,88,0.00,,,0.00,WUHU21623XXSP,2013-01-30 01:24:00,
2013-01-29 20:27:00,39.0,35.7,29.89,SE,135,3.1,3.8,88,0.00,,,0.00,WUHU21623XXSP,2013-01-30 01:27:00,
2013-01-29 20:29:00,39.0,35.7,29.90,SSE,157,3.1,3.8,88,0.00,,,0.00,WUHU21623XXSP,2013-01-30 01:29:00,
2013-01-29 20:31:00,39.0,35.7,29.90,SSE,157,2.5,3.8,88,0.00,,,0.00,WUHU21623XXSP,2013-01-30 01:31:00,
2013-01-29 20:33:00,39.0,35.7,29.90,SSE,157,0.0,3.8,88,0.00,,,0.00,WUHU21623XXSP,2013-01-30 01:33:00,
2013-01-29 20:35:00,39.0,35.7,29.90,SSE,157,0.0,3.1,88,0.00,,,0.00,WUHU21623XXSP,2013-01-30 01:35:00,
2013-01-29 20:37:00,39.0,35.7,29.90,SSE,157,0.0,3.1,88,0.00,,,0.00,WUHU21623XXSP,2013-01-30 01:37:00,
2013-01-29 20:39:00,39.0,35.7,29.90,SSE,157,0.0,2.5,88,0.00,,,0.00,WUHU21623XXSP,2013-01-30 01:39:00,
2013-01-29 20:42:00,39.0,35.7,29.90,East,90,2.7,2.7,88,0.00,,,0.00,WUHU21623XXSP,2013-01-30 01:42:00,
2013-01-29 20:44:00,39.0,35.7,29.90,East,90,3.8,3.8,88,0.00,,,0.00,WUHU21623XXSP,2013-01-30 01:44:00,
2013-01-29 20:46:00,39.0,35.7,29.90,East,90,3.8,3.8,88,0.00,,,0.00,WUHU21623XXSP,2013-01-30 01:46:00,
2013-01-29 20:48:00,39.0,35.7,29.90,East,90,3.8,3.8,88,0.00,,,0.00,WUHU21623XXSP,2013-01-30 01:48:00,
2013-01-29 20:50:00,39.4,36.1,29.90,East,90,3.8,3.8,88,0.00,,,0.00,WUHU21623XXSP,2013-01-30 01:50:00,
2013-01-29 20:52:00,39.4,36.1,29.91,East,90,3.8,3.8,88,0.00,,,0.00,WUHU21623XXSP,2013-01-30 01:52:00,
2013-01-29 20:54:00,39.4,36.1,29.92,East,90,3.8,3.8,88,0.00,,,0.00,WUHU21623XXSP,2013-01-30 01:54:00,
2013-01-29 20:57:00,39.4,36.1,29.92,East,90,3.8,3.8,88,0.00,,,0.00,WUHU21623XXSP,2013-01-30 01:57:00,
2013-01-29 20:59:00,39.4,36.1,29.92,East,90,3.8,3.8,88,0.00,,,0.00,WUHU21623XXSP,2013-01-30 01:59:00,
2013-01-29 21:01:00,39.4,36.1,29.92,East,90,3.8,3.8,88,0.00,,,0.00,WUHU21623XXSP,2013-01-30 02:01:00,
2013-01-29 21:03:00,38.5,36.1,29.92,East,90,3.8,3.8,88,0.00,,,0.00,WUHU21623XXSP,2013-01-30 02:03:00,
2013-01-29 21:05:00,38.1,34.8,29.91,East,90,3.8,3.8,88,0.00,,,0.00,WUHU21623XXSP,2013-01-30 02:05:00,
2013-01-29 21:07:00,37.8,34.5,29.91,East,90,3.8,3.8,88,0.00,,,0.00,WUHU21623XXSP,2013-01-30 02:07:00,
2013-01-29 21:09:00,37.8,34.5,29.90,East,90,3.8,3.8,88,0.00,,,0.00,WUHU21623XXSP,2013-01-30 02:09:00,
2013-01-29 21:11:00,37.8,34.5,29.90,East,90,3.8,3.8,88,0.00,,,0.00,WUHU21623XXSP,2013-01-30 02:11:00,
2013-01-29 21:14:00,37.8,34.5,29.90,East,90,3.8,3.8,88,0.00,,,0.00,WUHU21623XXSP,2013-01-30 02:14:00,
2013-01-29 21:16:00,37.8,34.5,29.90,East,90,3.8,3.8,88,0.00,,,0.00,WUHU21623XXSP,2013-01-30 02:16:00,
2013-01-29 21:18:00,37.8,34.5,29.90,East,90,3.8,3.8,88,0.00,,,0.00,WUHU21623XXSP,2013-01-30 02:18:00,
2013-01-29 21:20:00,37.2,33.9,29.90,East,90,3.8,3.8,88,0.00,,,0.00,WUHU21623XXSP,2013-01-30 02:20:00,
2013-01-29 21:22:00,37.8,34.5,29.89,SE,135,1.3,3.8,88,0.00,,,0.00,WUHU21623XXSP,2013-01-30 02:22:00,
2013-01-29 21:25:00,38.8,35.6,29.89,SE,135,2.0,3.8,88,0.00,,,0.00,WUHU21623XXSP,2013-01-30 02:25:00,
2013-01-29 21:27:00,39.7,36.4,29.89,SE,135,5.6,5.6,88,0.00,,,0.00,WUHU21623XXSP,2013-01-30 02:27:00,
2013-01-29 21:29:00,40.3,37.0,29.89,SE,135,5.8,5.8,88,0.00,,,0.00,WUHU21623XXSP,2013-01-30 02:29:00,
2013-01-29 21:31:00,40.3,37.0,29.89,ESE,112,1.6,5.8,88,0.00,,,0.00,WUHU21623XXSP,2013-01-30 02:31:00,
2013-01-29 21:33:00,40.5,37.1,29.89,ESE,112,1.6,5.8,88,0.00,,,0.00,WUHU21623XXSP,2013-01-30 02:33:00,
2013-01-29 21:35:00,40.6,37.3,29.89,SE,135,2.5,5.8,88,0.00,,,0.00,WUHU21623XXSP,2013-01-30 02:35:00,
2013-01-29 21:37:00,40.8,37.5,29.89,South,180,3.4,5.8,88,0.00,,,0.00,WUHU21623XXSP,2013-01-30 02:37:00,
2013-01-29 21:39:00,41.0,37.7,29.89,SSE,157,4.0,4.0,88,0.00,,,0.00,WUHU21623XXSP,2013-01-30 02:39:00,
2013-01-29 21:42:00,41.0,37.7,29.89,SE,135,2.2,4.0,88,0.00,,,0.00,WUHU21623XXSP,2013-01-30 02:42:00,
2013-01-29 21:44:00,41.2,37.9,29.89,SE,135,3.4,4.0,88,0.00,,,0.00,WUHU21623XXSP,2013-01-30 02:44:00,
2013-01-29 21:46:00,41.2,37.9,29.89,SSE,157,6.7,6.7,88,0.00,,,0.00,WUHU21623XXSP,2013-01-30 02:46:00,
2013-01-29 21:48:00,41.2,37.9,29.89,SSE,157,7.8,7.8,88,0.00,,,0.00,WUHU21623XXSP,2013-01-30 02:48:00,
2013-01-29 21:50:00,41.2,37.9,29.89,SSE,157,2.7,7.8,88,0.00,,,0.00,WUHU21623XXSP,2013-01-30 02:50:00,
2013-01-29 21:52:00,40.8,37.5,29.89,SSE,157,0.0,7.8,88,0.00,,,0.00,WUHU21623XXSP,2013-01-30 02:52:00,
2013-01-29 21:54:00,41.0,37.7,29.88,SE,135,3.8,7.8,88,0.00,,,0.00,WUHU21623XXSP,2013-01-30 02:54:00,
2013-01-29 21:57:00,41.0,37.7,29.88,SSE,157,4.5,7.8,88,0.00,,,0.00,WUHU21623XXSP,2013-01-30 02:57:00,
2013-01-29 21:59:00,41.2,37.9,29.88,SSE,157,4.9,4.9,88,0.00,,,0.00,WUHU21623XXSP,2013-01-30 02:59:00,
2013-01-29 22:01:00,41.2,37.9,29.88,SSE,157,4.9,4.9,88,0.00,,,0.00,WUHU21623XXSP,2013-01-30 03:01:00,
2013-01-29 22:03:00,41.2,37.9,29.89,SSE,157,5.1,5.1,88,0.00,,,0.00,WUHU21623XXSP,2013-01-30 03:03:00,
2013-01-29 22:05:00,41.2,37.9,29.89,SSE,157,7.4,7.4,88,0.00,,,0.00,WUHU21623XXSP,2013-01-30 03:05:00,
2013-01-29 22:07:00,41.2,37.9,29.89,SSE,157,4.7,7.4,88,0.00,,,0.00,WUHU21623XXSP,2013-01-30 03:07:00,
2013-01-29 22:10:00,41.4,38.0,29.89,SE,135,3.4,7.4,88,0.00,,,0.00,WUHU21623XXSP,2013-01-30 03:10:00,
2013-01-29 22:12:00,41.4,38.0,29.89,SE,135,1.6,7.4,88,0.00,,,0.00,WUHU21623XXSP,2013-01-30 03:12:00,
2013-01-29 22:14:00,41.4,38.0,29.89,East,90,0.0,7.4,88,0.00,,,0.00,WUHU21623XXSP,2013-01-30 03:14:00,
2013-01-29 22:16:00,41.2,37.9,29.89,SSE,157,5.4,5.4,88,0.00,,,0.00,WUHU21623XXSP,2013-01-30 03:16:00,
2013-01-29 22:18:00,41.4,38.0,29.89,SSE,157,4.5,5.4,88,0.00,,,0.00,WUHU21623XXSP,2013-01-30 03:18:00,
2013-01-29 22:20:00,41.5,38.2,29.89,SSE,157,4.7,5.4,88,0.00,,,0.00,WUHU21623XXSP,2013-01-30 03:20:00,
2013-01-29 22:22:00,41.5,38.2,29.90,SSE,157,1.3,5.4,88,0.00,,,0.00,WUHU21623XXSP,2013-01-30 03:22:00,
2013-01-29 22:24:00,41.5,38.2,29.90,SE,135,1.3,5.4,88,0.00,,,0.00,WUHU21623XXSP,2013-01-30 03:24:00,
2013-01-29 22:27:00,41.4,38.0,29.90,SSE,157,5.8,5.8,88,0.00,,,0.00,WUHU21623XXSP,2013-01-30 03:27:00,
2013-01-29 22:29:00,41.2,37.9,29.90,SE,135,1.1,5.8,88,0.00,,,0.00,WUHU21623XXSP,2013-01-30 03:29:00,
2013-01-29 22:31:00,41.2,37.9,29.89,SSE,157,0.0,5.8,88,0.00,,,0.00,WUHU21623XXSP,2013-01-30 03:31:00,
2013-01-29 22:33:00,41.4,38.0,29.90,SE,135,4.3,5.8,88,0.00,,,0.00,WUHU21623XXSP,2013-01-30 03:33:00,
2013-01-29 22:35:00,41.4,38.0,29.89,SSE,157,3.1,5.8,88,0.00,,,0.00,WUHU21623XXSP,2013-01-30 03:35:00,
2013-01-29 22:37:00,41.4,38.0,29.89,SSE,157,0.0,4.3,88,0.00,,,0.00,WUHU21623XXSP,2013-01-30 03:37:00,
2013-01-29 22:40:00,41.2,37.9,29.89,SSE,157,2.5,4.3,88,0.00,,,0.00,WUHU21623XXSP,2013-01-30 03:40:00,
2013-01-29 22:42:00,41.2,37.9,29.89,SSE,157,4.0,4.3,88,0.00,,,0.00,WUHU21623XXSP,2013-01-30 03:42:00,
2013-01-29 22:44:00,41.2,37.9,29.89,SSE,157,3.4,4.0,88,0.00,,,0.00,WUHU21623XXSP,2013-01-30 03:44:00,
2013-01-29 22:46:00,41.2,37.9,29.89,SSE,157,3.6,4.0,88,0.00,,,0.00,WUHU21623XXSP,2013-01-30 03:46:00,
2013-01-29 22:48:00,41.2,37.9,29.89,South,180,3.6,4.0,88,0.00,,,0.00,WUHU21623XXSP,2013-01-30 03:48:00,
2013-01-29 22:50:00,41.2,37.9,29.89,SSE,157,0.0,4.0,88,0.00,,,0.00,WUHU21623XXSP,2013-01-30 03:50:00,
2013-01-29 22:52:00,41.2,37.9,29.89,SSE,157,0.0,3.6,88,0.00,,,0.00,WUHU21623XXSP,2013-01-30 03:52:00,
2013-01-29 22:54:00,41.2,37.9,29.89,SSE,157,0.0,3.6,88,0.00,,,0.00,WUHU21623XXSP,2013-01-30 03:54:00,
2013-01-29 22:57:00,41.2,37.9,29.89,SSW,202,1.1,3.6,88,0.00,,,0.00,WUHU21623XXSP,2013-01-30 03:57:00,
2013-01-29 22:59:00,41.2,37.9,29.89,ESE,112,3.4,3.4,88,0.00,,,0.00,WUHU21623XXSP,2013-01-30 03:59:00,
2013-01-29 23:01:00,41.2,37.9,29.88,SSE,157,6.3,6.3,88,0.00,,,0.00,WUHU21623XXSP,2013-01-30 04:01:00,
2013-01-29 23:03:00,41.2,37.9,29.89,SSE,157,1.3,6.3,88,0.00,,,0.00,WUHU21623XXSP,2013-01-30 04:03:00,
2013-01-29 23:05:00,41.4,38.0,29.89,South,180,0.0,6.3,88,0.00,,,0.00,WUHU21623XXSP,2013-01-30 04:05:00,
2013-01-29 23:07:00,41.4,38.0,29.89,South,180,2.9,6.3,88,0.00,,,0.00,WUHU21623XXSP,2013-01-30 04:07:00,
2013-01-29 23:10:00,41.4,38.0,29.89,SSE,157,3.6,6.3,88,0.00,,,0.00,WUHU21623XXSP,2013-01-30 04:10:00,
2013-01-29 23:12:00,41.4,38.0,29.89,SSE,157,0.0,3.6,88,0.00,,,0.00,WUHU21623XXSP,2013-01-30 04:12:00,
2013-01-29 23:14:00,41.4,38.0,29.88,SSE,157,0.0,3.6,88,0.00,,,0.00,WUHU21623XXSP,2013-01-30 04:14:00,
2013-01-29 23:16:00,41.5,38.2,29.88,SW,225,3.6,3.6,88,0.00,,,0.00,WUHU21623XXSP,2013-01-30 04:16:00,
2013-01-29 23:18:00,41.4,38.0,29.89,SW,225,2.9,3.6,88,0.00,,,0.00,WUHU21623XXSP,2013-01-30 04:18:00,
2013-01-29 23:20:00,41.2,37.9,29.88,SW,225,0.0,3.6,88,0.00,,,0.00,WUHU21623XXSP,2013-01-30 04:20:00,
2013-01-29 23:22:00,41.4,37.9,29.88,SSW,202,0.0,3.6,88,0.00,,,0.00,WUHU21623XXSP,2013-01-30 04:22:00,
2013-01-29 23:24:00,41.4,38.0,29.88,South,180,0.0,3.6,88,0.00,,,0.00,WUHU21623XXSP,2013-01-30 04:24:00,
2013-01-29 23:27:00,41.4,38.0,29.88,ESE,112,0.0,2.9,88,0.00,,,0.00,WUHU21623XXSP,2013-01-30 04:27:00,
2013-01-29 23:29:00,41.4,38.0,29.88,SE,135,0.0,0.0,88,0.00,,,0.00,WUHU21623XXSP,2013-01-30 04:29:00,
2013-01-29 23:31:00,41.5,38.5,29.88,SE,135,0.0,0.0,89,0.00,,,0.00,WUHU21623XXSP,2013-01-30 04:31:00,
2013-01-29 23:33:00,41.7,38.7,29.87,SSE,157,3.6,3.6,89,0.00,,,0.00,WUHU21623XXSP,2013-01-30 04:33:00,
2013-01-29 23:35:00,41.7,38.7,29.88,SSE,157,1.1,3.6,89,0.00,,,0.00,WUHU21623XXSP,2013-01-30 04:35:00,
2013-01-29 23:37:00,41.9,38.9,29.88,SE,135,0.0,3.6,89,0.00,,,0.00,WUHU21623XXSP,2013-01-30 04:37:00,
2013-01-29 23:39:00,42.1,39.1,29.88,SSE,157,3.6,3.6,89,0.00,,,0.00,WUHU21623XXSP,2013-01-30 04:39:00,
2013-01-29 23:42:00,42.1,38.8,29.88,South,180,6.5,6.5,88,0.00,,,0.00,WUHU21623XXSP,2013-01-30 04:42:00,
2013-01-29 23:44:00,42.3,38.9,29.88,SSE,157,7.8,7.8,88,0.00,,,0.00,WUHU21623XXSP,2013-01-30 04:44:00,
2013-01-29 23:48:00,42.4,39.1,29.88,SSE,157,1.6,7.8,88,0.00,,,0.00,WUHU21623XXSP,2013-01-30 04:48:00,
2013-01-29 23:50:00,42.4,39.1,29.88,South,180,0.0,7.8,88,0.00,,,0.00,WUHU21623XXSP,2013-01-30 04:50:00,
2013-01-29 23:52:00,42.4,39.1,29.88,South,180,1.1,7.8,88,0.00,,,0.00,WUHU21623XXSP,2013-01-30 04:52:00,
2013-01-29 23:54:00,42.4,39.1,29.87,SSE,157,3.6,3.6,88,0.00,,,0.00,WUHU21623XXSP,2013-01-30 04:54:00,
2013-01-29 23:57:00,42.4,39.1,29.87,SE,135,0.7,3.6,88,0.00,,,0.00,WUHU21623XXSP,2013-01-30 04:57:00,
2013-01-29 23:59:00,42.6,39.3,29.87,South,180,3.6,3.6,88,0.00,,,0.00,WUHU21623XXSP,2013-01-30 04:59:00,